<?xml version="1.0" encoding="UTF-8" standalone="no" ?>
<gpx xmlns="http://www.topografix.com/GPX/1/1" xmlns:xsi="http://www.w3.org/2001/XMLSchema-instance" xsi:schemaLocation="http://www.topografix.com/GPX/1/1 http://www.topografix.com/GPX/1/1/gpx.xsd" version="1.1" creator="VisuGPX - https://www.visugpx.com">
  <metadata>
    <name>Circuit des Pierres Dorées(69 Rhône) Etape 3 - Col de la Croix de Thel&gt;Lozanne</name>
    <desc><![CDATA[Le Circuit des Pierres Dorées(69 Rhône) est un circuit 
d'une longueur totale de 100 Km environ
Traversant de jolis petits villages du Beaujolais
Départ et Arrivée : Lozanne (69380)]]></desc>
  </metadata>
  <trk>
    <name><![CDATA[Circuit des Pierres Dorées(69 Rhône) Etape 3 - Col de la Croix de Thel>Lozanne_1]]></name>
    <trkseg>
      <trkpt lat="45.96899" lon="4.47247">
        <ele>647</ele>
        <time>2021-10-25T16:33:12+02:00</time>
      </trkpt>
      <trkpt lat="45.96752" lon="4.47527">
        <ele>661</ele>
        <time>2021-10-25T16:33:17+02:00</time>
      </trkpt>
      <trkpt lat="45.96749" lon="4.47533">
        <ele>661</ele>
        <time>2021-10-25T16:33:22+02:00</time>
      </trkpt>
      <trkpt lat="45.96735" lon="4.47567">
        <ele>665</ele>
        <time>2021-10-25T16:33:27+02:00</time>
      </trkpt>
      <trkpt lat="45.96727" lon="4.47616">
        <ele>673</ele>
        <time>2021-10-25T16:33:32+02:00</time>
      </trkpt>
      <trkpt lat="45.96716" lon="4.47638">
        <ele>676</ele>
        <time>2021-10-25T16:33:37+02:00</time>
      </trkpt>
      <trkpt lat="45.96683" lon="4.47659">
        <ele>676</ele>
        <time>2021-10-25T16:33:42+02:00</time>
      </trkpt>
      <trkpt lat="45.96646" lon="4.4768">
        <ele>681</ele>
        <time>2021-10-25T16:33:47+02:00</time>
      </trkpt>
      <trkpt lat="45.96606" lon="4.47686">
        <ele>686</ele>
        <time>2021-10-25T16:33:52+02:00</time>
      </trkpt>
      <trkpt lat="45.96599" lon="4.47686">
        <ele>687</ele>
        <time>2021-10-25T16:33:57+02:00</time>
      </trkpt>
      <trkpt lat="45.9659" lon="4.47688">
        <ele>688</ele>
        <time>2021-10-25T16:34:02+02:00</time>
      </trkpt>
      <trkpt lat="45.9658" lon="4.47688">
        <ele>689</ele>
        <time>2021-10-25T16:34:07+02:00</time>
      </trkpt>
      <trkpt lat="45.96549" lon="4.47652">
        <ele>689</ele>
        <time>2021-10-25T16:34:12+02:00</time>
      </trkpt>
      <trkpt lat="45.96535" lon="4.47639">
        <ele>690</ele>
        <time>2021-10-25T16:34:17+02:00</time>
      </trkpt>
      <trkpt lat="45.96513" lon="4.47602">
        <ele>687</ele>
        <time>2021-10-25T16:34:22+02:00</time>
      </trkpt>
      <trkpt lat="45.96502" lon="4.47592">
        <ele>687</ele>
        <time>2021-10-25T16:34:27+02:00</time>
      </trkpt>
      <trkpt lat="45.96481" lon="4.47581">
        <ele>684</ele>
        <time>2021-10-25T16:34:32+02:00</time>
      </trkpt>
      <trkpt lat="45.96476" lon="4.47578">
        <ele>684</ele>
        <time>2021-10-25T16:34:37+02:00</time>
      </trkpt>
      <trkpt lat="45.96459" lon="4.47582">
        <ele>683</ele>
        <time>2021-10-25T16:34:42+02:00</time>
      </trkpt>
      <trkpt lat="45.96443" lon="4.47593">
        <ele>684</ele>
        <time>2021-10-25T16:34:47+02:00</time>
      </trkpt>
      <trkpt lat="45.96438" lon="4.47605">
        <ele>687</ele>
        <time>2021-10-25T16:34:52+02:00</time>
      </trkpt>
      <trkpt lat="45.96431" lon="4.47617">
        <ele>689</ele>
        <time>2021-10-25T16:34:57+02:00</time>
      </trkpt>
      <trkpt lat="45.9642" lon="4.47633">
        <ele>693</ele>
        <time>2021-10-25T16:35:02+02:00</time>
      </trkpt>
      <trkpt lat="45.96409" lon="4.47644">
        <ele>693</ele>
        <time>2021-10-25T16:35:07+02:00</time>
      </trkpt>
      <trkpt lat="45.96397" lon="4.47658">
        <ele>693</ele>
        <time>2021-10-25T16:35:12+02:00</time>
      </trkpt>
      <trkpt lat="45.96388" lon="4.47672">
        <ele>694</ele>
        <time>2021-10-25T16:35:17+02:00</time>
      </trkpt>
      <trkpt lat="45.96371" lon="4.47696">
        <ele>695</ele>
        <time>2021-10-25T16:35:22+02:00</time>
      </trkpt>
      <trkpt lat="45.96351" lon="4.47718">
        <ele>695</ele>
        <time>2021-10-25T16:35:27+02:00</time>
      </trkpt>
      <trkpt lat="45.96336" lon="4.4773">
        <ele>695</ele>
        <time>2021-10-25T16:35:32+02:00</time>
      </trkpt>
      <trkpt lat="45.9631" lon="4.47751">
        <ele>694</ele>
        <time>2021-10-25T16:35:37+02:00</time>
      </trkpt>
      <trkpt lat="45.96301" lon="4.4776">
        <ele>694</ele>
        <time>2021-10-25T16:35:42+02:00</time>
      </trkpt>
      <trkpt lat="45.96291" lon="4.47772">
        <ele>695</ele>
        <time>2021-10-25T16:35:47+02:00</time>
      </trkpt>
      <trkpt lat="45.96284" lon="4.47783">
        <ele>696</ele>
        <time>2021-10-25T16:35:52+02:00</time>
      </trkpt>
      <trkpt lat="45.9627" lon="4.47834">
        <ele>705</ele>
        <time>2021-10-25T16:35:57+02:00</time>
      </trkpt>
      <trkpt lat="45.96247" lon="4.47888">
        <ele>712</ele>
        <time>2021-10-25T16:36:02+02:00</time>
      </trkpt>
      <trkpt lat="45.96222" lon="4.47934">
        <ele>719</ele>
        <time>2021-10-25T16:36:07+02:00</time>
      </trkpt>
      <trkpt lat="45.96194" lon="4.47976">
        <ele>724</ele>
        <time>2021-10-25T16:36:12+02:00</time>
      </trkpt>
      <trkpt lat="45.96196" lon="4.48016">
        <ele>724</ele>
        <time>2021-10-25T16:36:17+02:00</time>
      </trkpt>
      <trkpt lat="45.96195" lon="4.48047">
        <ele>722</ele>
        <time>2021-10-25T16:36:22+02:00</time>
      </trkpt>
      <trkpt lat="45.96178" lon="4.48112">
        <ele>721</ele>
        <time>2021-10-25T16:36:27+02:00</time>
      </trkpt>
      <trkpt lat="45.96172" lon="4.48149">
        <ele>719</ele>
        <time>2021-10-25T16:36:32+02:00</time>
      </trkpt>
      <trkpt lat="45.96161" lon="4.48195">
        <ele>720</ele>
        <time>2021-10-25T16:36:37+02:00</time>
      </trkpt>
      <trkpt lat="45.96148" lon="4.48237">
        <ele>720</ele>
        <time>2021-10-25T16:36:42+02:00</time>
      </trkpt>
      <trkpt lat="45.96135" lon="4.4829">
        <ele>718</ele>
        <time>2021-10-25T16:36:47+02:00</time>
      </trkpt>
      <trkpt lat="45.96125" lon="4.4831">
        <ele>719</ele>
        <time>2021-10-25T16:36:52+02:00</time>
      </trkpt>
      <trkpt lat="45.96105" lon="4.48333">
        <ele>722</ele>
        <time>2021-10-25T16:36:57+02:00</time>
      </trkpt>
      <trkpt lat="45.96086" lon="4.48374">
        <ele>722</ele>
        <time>2021-10-25T16:37:02+02:00</time>
      </trkpt>
      <trkpt lat="45.96084" lon="4.48379">
        <ele>722</ele>
        <time>2021-10-25T16:37:07+02:00</time>
      </trkpt>
      <trkpt lat="45.96079" lon="4.48389">
        <ele>720</ele>
        <time>2021-10-25T16:37:12+02:00</time>
      </trkpt>
      <trkpt lat="45.96075" lon="4.48399">
        <ele>718</ele>
        <time>2021-10-25T16:37:17+02:00</time>
      </trkpt>
      <trkpt lat="45.96069" lon="4.48408">
        <ele>715</ele>
        <time>2021-10-25T16:37:22+02:00</time>
      </trkpt>
      <trkpt lat="45.96061" lon="4.48406">
        <ele>714</ele>
        <time>2021-10-25T16:37:27+02:00</time>
      </trkpt>
      <trkpt lat="45.96049" lon="4.48397">
        <ele>712</ele>
        <time>2021-10-25T16:37:32+02:00</time>
      </trkpt>
      <trkpt lat="45.9604" lon="4.48385">
        <ele>711</ele>
        <time>2021-10-25T16:37:37+02:00</time>
      </trkpt>
      <trkpt lat="45.96025" lon="4.48375">
        <ele>708</ele>
        <time>2021-10-25T16:37:42+02:00</time>
      </trkpt>
      <trkpt lat="45.96026" lon="4.4839">
        <ele>707</ele>
        <time>2021-10-25T16:37:47+02:00</time>
      </trkpt>
      <trkpt lat="45.96031" lon="4.48402">
        <ele>707</ele>
        <time>2021-10-25T16:37:52+02:00</time>
      </trkpt>
      <trkpt lat="45.96027" lon="4.48446">
        <ele>705</ele>
        <time>2021-10-25T16:37:57+02:00</time>
      </trkpt>
      <trkpt lat="45.96032" lon="4.48501">
        <ele>707</ele>
        <time>2021-10-25T16:38:02+02:00</time>
      </trkpt>
      <trkpt lat="45.96037" lon="4.48522">
        <ele>706</ele>
        <time>2021-10-25T16:38:07+02:00</time>
      </trkpt>
      <trkpt lat="45.96036" lon="4.48543">
        <ele>705</ele>
        <time>2021-10-25T16:38:12+02:00</time>
      </trkpt>
      <trkpt lat="45.96032" lon="4.48564">
        <ele>703</ele>
        <time>2021-10-25T16:38:17+02:00</time>
      </trkpt>
      <trkpt lat="45.96015" lon="4.48588">
        <ele>702</ele>
        <time>2021-10-25T16:38:22+02:00</time>
      </trkpt>
      <trkpt lat="45.95999" lon="4.486">
        <ele>701</ele>
        <time>2021-10-25T16:38:27+02:00</time>
      </trkpt>
      <trkpt lat="45.95995" lon="4.48612">
        <ele>699</ele>
        <time>2021-10-25T16:38:32+02:00</time>
      </trkpt>
      <trkpt lat="45.9599" lon="4.48625">
        <ele>698</ele>
        <time>2021-10-25T16:38:37+02:00</time>
      </trkpt>
      <trkpt lat="45.95984" lon="4.48644">
        <ele>696</ele>
        <time>2021-10-25T16:38:42+02:00</time>
      </trkpt>
      <trkpt lat="45.95969" lon="4.48705">
        <ele>690</ele>
        <time>2021-10-25T16:38:47+02:00</time>
      </trkpt>
      <trkpt lat="45.95956" lon="4.48755">
        <ele>685</ele>
        <time>2021-10-25T16:38:52+02:00</time>
      </trkpt>
      <trkpt lat="45.95939" lon="4.48824">
        <ele>678</ele>
        <time>2021-10-25T16:38:57+02:00</time>
      </trkpt>
      <trkpt lat="45.95932" lon="4.48829">
        <ele>676</ele>
        <time>2021-10-25T16:39:02+02:00</time>
      </trkpt>
      <trkpt lat="45.95923" lon="4.48849">
        <ele>675</ele>
        <time>2021-10-25T16:39:07+02:00</time>
      </trkpt>
      <trkpt lat="45.95909" lon="4.48867">
        <ele>673</ele>
        <time>2021-10-25T16:39:12+02:00</time>
      </trkpt>
      <trkpt lat="45.95895" lon="4.48875">
        <ele>673</ele>
        <time>2021-10-25T16:39:17+02:00</time>
      </trkpt>
      <trkpt lat="45.95885" lon="4.48876">
        <ele>672</ele>
        <time>2021-10-25T16:39:22+02:00</time>
      </trkpt>
      <trkpt lat="45.95873" lon="4.48878">
        <ele>670</ele>
        <time>2021-10-25T16:39:27+02:00</time>
      </trkpt>
      <trkpt lat="45.95859" lon="4.48879">
        <ele>669</ele>
        <time>2021-10-25T16:39:32+02:00</time>
      </trkpt>
      <trkpt lat="45.95836" lon="4.4888">
        <ele>667</ele>
        <time>2021-10-25T16:39:37+02:00</time>
      </trkpt>
      <trkpt lat="45.95796" lon="4.48874">
        <ele>665</ele>
        <time>2021-10-25T16:39:42+02:00</time>
      </trkpt>
      <trkpt lat="45.95723" lon="4.48886">
        <ele>663</ele>
        <time>2021-10-25T16:39:47+02:00</time>
      </trkpt>
      <trkpt lat="45.95699" lon="4.4889">
        <ele>660</ele>
        <time>2021-10-25T16:39:52+02:00</time>
      </trkpt>
      <trkpt lat="45.95639" lon="4.48916">
        <ele>656</ele>
        <time>2021-10-25T16:39:57+02:00</time>
      </trkpt>
      <trkpt lat="45.95608" lon="4.4893">
        <ele>652</ele>
        <time>2021-10-25T16:40:02+02:00</time>
      </trkpt>
      <trkpt lat="45.95561" lon="4.48972">
        <ele>650</ele>
        <time>2021-10-25T16:40:07+02:00</time>
      </trkpt>
      <trkpt lat="45.95542" lon="4.49">
        <ele>651</ele>
        <time>2021-10-25T16:40:12+02:00</time>
      </trkpt>
      <trkpt lat="45.95519" lon="4.49024">
        <ele>649</ele>
        <time>2021-10-25T16:40:17+02:00</time>
      </trkpt>
      <trkpt lat="45.95506" lon="4.49041">
        <ele>648</ele>
        <time>2021-10-25T16:40:22+02:00</time>
      </trkpt>
      <trkpt lat="45.95487" lon="4.49057">
        <ele>647</ele>
        <time>2021-10-25T16:40:27+02:00</time>
      </trkpt>
      <trkpt lat="45.95467" lon="4.49062">
        <ele>646</ele>
        <time>2021-10-25T16:40:32+02:00</time>
      </trkpt>
      <trkpt lat="45.95454" lon="4.49054">
        <ele>644</ele>
        <time>2021-10-25T16:40:37+02:00</time>
      </trkpt>
      <trkpt lat="45.95402" lon="4.49002">
        <ele>635</ele>
        <time>2021-10-25T16:40:42+02:00</time>
      </trkpt>
      <trkpt lat="45.95386" lon="4.48996">
        <ele>634</ele>
        <time>2021-10-25T16:40:47+02:00</time>
      </trkpt>
      <trkpt lat="45.95369" lon="4.48996">
        <ele>634</ele>
        <time>2021-10-25T16:40:52+02:00</time>
      </trkpt>
      <trkpt lat="45.95352" lon="4.49">
        <ele>634</ele>
        <time>2021-10-25T16:40:57+02:00</time>
      </trkpt>
      <trkpt lat="45.95341" lon="4.4901">
        <ele>635</ele>
        <time>2021-10-25T16:41:02+02:00</time>
      </trkpt>
      <trkpt lat="45.95303" lon="4.49119">
        <ele>631</ele>
        <time>2021-10-25T16:41:07+02:00</time>
      </trkpt>
      <trkpt lat="45.9529" lon="4.49193">
        <ele>629</ele>
        <time>2021-10-25T16:41:12+02:00</time>
      </trkpt>
      <trkpt lat="45.95284" lon="4.49214">
        <ele>628</ele>
        <time>2021-10-25T16:41:17+02:00</time>
      </trkpt>
      <trkpt lat="45.95272" lon="4.49224">
        <ele>627</ele>
        <time>2021-10-25T16:41:22+02:00</time>
      </trkpt>
      <trkpt lat="45.95254" lon="4.49226">
        <ele>626</ele>
        <time>2021-10-25T16:41:27+02:00</time>
      </trkpt>
      <trkpt lat="45.95211" lon="4.49249">
        <ele>622</ele>
        <time>2021-10-25T16:41:32+02:00</time>
      </trkpt>
      <trkpt lat="45.95187" lon="4.49267">
        <ele>620</ele>
        <time>2021-10-25T16:41:37+02:00</time>
      </trkpt>
      <trkpt lat="45.95133" lon="4.49337">
        <ele>620</ele>
        <time>2021-10-25T16:41:42+02:00</time>
      </trkpt>
      <trkpt lat="45.95107" lon="4.49354">
        <ele>618</ele>
        <time>2021-10-25T16:41:47+02:00</time>
      </trkpt>
      <trkpt lat="45.95098" lon="4.4936">
        <ele>617</ele>
        <time>2021-10-25T16:41:52+02:00</time>
      </trkpt>
      <trkpt lat="45.95024" lon="4.49363">
        <ele>611</ele>
        <time>2021-10-25T16:41:57+02:00</time>
      </trkpt>
      <trkpt lat="45.94992" lon="4.49363">
        <ele>610</ele>
        <time>2021-10-25T16:42:02+02:00</time>
      </trkpt>
      <trkpt lat="45.94969" lon="4.49373">
        <ele>610</ele>
        <time>2021-10-25T16:42:07+02:00</time>
      </trkpt>
      <trkpt lat="45.94931" lon="4.49416">
        <ele>612</ele>
        <time>2021-10-25T16:42:12+02:00</time>
      </trkpt>
      <trkpt lat="45.94929" lon="4.4941">
        <ele>611</ele>
        <time>2021-10-25T16:42:17+02:00</time>
      </trkpt>
      <trkpt lat="45.94922" lon="4.49409">
        <ele>611</ele>
        <time>2021-10-25T16:42:22+02:00</time>
      </trkpt>
      <trkpt lat="45.94923" lon="4.49422">
        <ele>611</ele>
        <time>2021-10-25T16:42:27+02:00</time>
      </trkpt>
      <trkpt lat="45.94895" lon="4.49433">
        <ele>614</ele>
        <time>2021-10-25T16:42:32+02:00</time>
      </trkpt>
      <trkpt lat="45.94845" lon="4.49446">
        <ele>621</ele>
        <time>2021-10-25T16:42:37+02:00</time>
      </trkpt>
      <trkpt lat="45.94815" lon="4.49457">
        <ele>627</ele>
        <time>2021-10-25T16:42:42+02:00</time>
      </trkpt>
      <trkpt lat="45.94783" lon="4.49472">
        <ele>635</ele>
        <time>2021-10-25T16:42:47+02:00</time>
      </trkpt>
      <trkpt lat="45.94749" lon="4.49505">
        <ele>639</ele>
        <time>2021-10-25T16:42:52+02:00</time>
      </trkpt>
      <trkpt lat="45.94716" lon="4.49529">
        <ele>640</ele>
        <time>2021-10-25T16:42:57+02:00</time>
      </trkpt>
      <trkpt lat="45.94657" lon="4.49558">
        <ele>646</ele>
        <time>2021-10-25T16:43:02+02:00</time>
      </trkpt>
      <trkpt lat="45.94619" lon="4.49573">
        <ele>647</ele>
        <time>2021-10-25T16:43:07+02:00</time>
      </trkpt>
      <trkpt lat="45.9461" lon="4.49575">
        <ele>647</ele>
        <time>2021-10-25T16:43:12+02:00</time>
      </trkpt>
      <trkpt lat="45.946" lon="4.49572">
        <ele>649</ele>
        <time>2021-10-25T16:43:17+02:00</time>
      </trkpt>
      <trkpt lat="45.94586" lon="4.49561">
        <ele>653</ele>
        <time>2021-10-25T16:43:22+02:00</time>
      </trkpt>
      <trkpt lat="45.9458" lon="4.49554">
        <ele>655</ele>
        <time>2021-10-25T16:43:27+02:00</time>
      </trkpt>
      <trkpt lat="45.94562" lon="4.49552">
        <ele>658</ele>
        <time>2021-10-25T16:43:32+02:00</time>
      </trkpt>
      <trkpt lat="45.9455" lon="4.49561">
        <ele>657</ele>
        <time>2021-10-25T16:43:37+02:00</time>
      </trkpt>
      <trkpt lat="45.94524" lon="4.49593">
        <ele>653</ele>
        <time>2021-10-25T16:43:42+02:00</time>
      </trkpt>
      <trkpt lat="45.94505" lon="4.49605">
        <ele>652</ele>
        <time>2021-10-25T16:43:47+02:00</time>
      </trkpt>
      <trkpt lat="45.94483" lon="4.49609">
        <ele>652</ele>
        <time>2021-10-25T16:43:52+02:00</time>
      </trkpt>
      <trkpt lat="45.94386" lon="4.49649">
        <ele>644</ele>
        <time>2021-10-25T16:43:57+02:00</time>
      </trkpt>
      <trkpt lat="45.94359" lon="4.49675">
        <ele>638</ele>
        <time>2021-10-25T16:44:02+02:00</time>
      </trkpt>
      <trkpt lat="45.94344" lon="4.49697">
        <ele>635</ele>
        <time>2021-10-25T16:44:07+02:00</time>
      </trkpt>
      <trkpt lat="45.94334" lon="4.49712">
        <ele>634</ele>
        <time>2021-10-25T16:44:12+02:00</time>
      </trkpt>
      <trkpt lat="45.94321" lon="4.49731">
        <ele>630</ele>
        <time>2021-10-25T16:44:17+02:00</time>
      </trkpt>
      <trkpt lat="45.94296" lon="4.49764">
        <ele>625</ele>
        <time>2021-10-25T16:44:22+02:00</time>
      </trkpt>
      <trkpt lat="45.94284" lon="4.49783">
        <ele>623</ele>
        <time>2021-10-25T16:44:27+02:00</time>
      </trkpt>
      <trkpt lat="45.94281" lon="4.49806">
        <ele>622</ele>
        <time>2021-10-25T16:44:32+02:00</time>
      </trkpt>
      <trkpt lat="45.94274" lon="4.49828">
        <ele>621</ele>
        <time>2021-10-25T16:44:37+02:00</time>
      </trkpt>
      <trkpt lat="45.94269" lon="4.49848">
        <ele>620</ele>
        <time>2021-10-25T16:44:42+02:00</time>
      </trkpt>
      <trkpt lat="45.94264" lon="4.49867">
        <ele>619</ele>
        <time>2021-10-25T16:44:47+02:00</time>
      </trkpt>
      <trkpt lat="45.94258" lon="4.49885">
        <ele>619</ele>
        <time>2021-10-25T16:44:52+02:00</time>
      </trkpt>
      <trkpt lat="45.9425" lon="4.49899">
        <ele>620</ele>
        <time>2021-10-25T16:44:57+02:00</time>
      </trkpt>
      <trkpt lat="45.9424" lon="4.4991">
        <ele>619</ele>
        <time>2021-10-25T16:45:02+02:00</time>
      </trkpt>
      <trkpt lat="45.94234" lon="4.49951">
        <ele>619</ele>
        <time>2021-10-25T16:45:07+02:00</time>
      </trkpt>
      <trkpt lat="45.94224" lon="4.50019">
        <ele>618</ele>
        <time>2021-10-25T16:45:12+02:00</time>
      </trkpt>
      <trkpt lat="45.9421" lon="4.50093">
        <ele>616</ele>
        <time>2021-10-25T16:45:17+02:00</time>
      </trkpt>
      <trkpt lat="45.94203" lon="4.50127">
        <ele>615</ele>
        <time>2021-10-25T16:45:22+02:00</time>
      </trkpt>
      <trkpt lat="45.94199" lon="4.5018">
        <ele>614</ele>
        <time>2021-10-25T16:45:27+02:00</time>
      </trkpt>
      <trkpt lat="45.942" lon="4.5024">
        <ele>612</ele>
        <time>2021-10-25T16:45:32+02:00</time>
      </trkpt>
      <trkpt lat="45.94198" lon="4.50246">
        <ele>613</ele>
        <time>2021-10-25T16:45:37+02:00</time>
      </trkpt>
      <trkpt lat="45.94196" lon="4.50265">
        <ele>612</ele>
        <time>2021-10-25T16:45:42+02:00</time>
      </trkpt>
      <trkpt lat="45.94193" lon="4.50285">
        <ele>612</ele>
        <time>2021-10-25T16:45:47+02:00</time>
      </trkpt>
      <trkpt lat="45.94186" lon="4.50312">
        <ele>612</ele>
        <time>2021-10-25T16:45:52+02:00</time>
      </trkpt>
      <trkpt lat="45.9418" lon="4.50338">
        <ele>612</ele>
        <time>2021-10-25T16:45:57+02:00</time>
      </trkpt>
      <trkpt lat="45.94144" lon="4.50446">
        <ele>607</ele>
        <time>2021-10-25T16:46:02+02:00</time>
      </trkpt>
      <trkpt lat="45.94089" lon="4.5058">
        <ele>599</ele>
        <time>2021-10-25T16:46:07+02:00</time>
      </trkpt>
      <trkpt lat="45.9407" lon="4.50614">
        <ele>596</ele>
        <time>2021-10-25T16:46:12+02:00</time>
      </trkpt>
      <trkpt lat="45.94008" lon="4.50903">
        <ele>560</ele>
        <time>2021-10-25T16:46:17+02:00</time>
      </trkpt>
      <trkpt lat="45.93994" lon="4.50971">
        <ele>550</ele>
        <time>2021-10-25T16:46:22+02:00</time>
      </trkpt>
      <trkpt lat="45.9398" lon="4.5102">
        <ele>541</ele>
        <time>2021-10-25T16:46:27+02:00</time>
      </trkpt>
      <trkpt lat="45.93971" lon="4.51037">
        <ele>539</ele>
        <time>2021-10-25T16:46:32+02:00</time>
      </trkpt>
      <trkpt lat="45.93967" lon="4.51039">
        <ele>538</ele>
        <time>2021-10-25T16:46:37+02:00</time>
      </trkpt>
      <trkpt lat="45.93958" lon="4.51058">
        <ele>535</ele>
        <time>2021-10-25T16:46:42+02:00</time>
      </trkpt>
      <trkpt lat="45.93957" lon="4.51067">
        <ele>534</ele>
        <time>2021-10-25T16:46:47+02:00</time>
      </trkpt>
      <trkpt lat="45.93942" lon="4.5111">
        <ele>529</ele>
        <time>2021-10-25T16:46:52+02:00</time>
      </trkpt>
      <trkpt lat="45.93937" lon="4.51118">
        <ele>528</ele>
        <time>2021-10-25T16:46:57+02:00</time>
      </trkpt>
      <trkpt lat="45.9391" lon="4.51131">
        <ele>526</ele>
        <time>2021-10-25T16:47:02+02:00</time>
      </trkpt>
      <trkpt lat="45.93875" lon="4.51153">
        <ele>519</ele>
        <time>2021-10-25T16:47:07+02:00</time>
      </trkpt>
      <trkpt lat="45.93834" lon="4.51179">
        <ele>513</ele>
        <time>2021-10-25T16:47:12+02:00</time>
      </trkpt>
      <trkpt lat="45.9378" lon="4.51244">
        <ele>508</ele>
        <time>2021-10-25T16:47:17+02:00</time>
      </trkpt>
      <trkpt lat="45.93759" lon="4.51284">
        <ele>506</ele>
        <time>2021-10-25T16:47:22+02:00</time>
      </trkpt>
      <trkpt lat="45.93743" lon="4.51324">
        <ele>504</ele>
        <time>2021-10-25T16:47:27+02:00</time>
      </trkpt>
      <trkpt lat="45.93729" lon="4.51371">
        <ele>501</ele>
        <time>2021-10-25T16:47:32+02:00</time>
      </trkpt>
      <trkpt lat="45.93705" lon="4.51471">
        <ele>495</ele>
        <time>2021-10-25T16:47:37+02:00</time>
      </trkpt>
      <trkpt lat="45.937" lon="4.51512">
        <ele>492</ele>
        <time>2021-10-25T16:47:42+02:00</time>
      </trkpt>
      <trkpt lat="45.93701" lon="4.51578">
        <ele>484</ele>
        <time>2021-10-25T16:47:47+02:00</time>
      </trkpt>
      <trkpt lat="45.93699" lon="4.5161">
        <ele>481</ele>
        <time>2021-10-25T16:47:52+02:00</time>
      </trkpt>
      <trkpt lat="45.93685" lon="4.5166">
        <ele>478</ele>
        <time>2021-10-25T16:47:57+02:00</time>
      </trkpt>
      <trkpt lat="45.93673" lon="4.51691">
        <ele>478</ele>
        <time>2021-10-25T16:48:02+02:00</time>
      </trkpt>
      <trkpt lat="45.93654" lon="4.5172">
        <ele>477</ele>
        <time>2021-10-25T16:48:07+02:00</time>
      </trkpt>
      <trkpt lat="45.93639" lon="4.51735">
        <ele>475</ele>
        <time>2021-10-25T16:48:12+02:00</time>
      </trkpt>
      <trkpt lat="45.9363" lon="4.51742">
        <ele>474</ele>
        <time>2021-10-25T16:48:17+02:00</time>
      </trkpt>
      <trkpt lat="45.93602" lon="4.51753">
        <ele>471</ele>
        <time>2021-10-25T16:48:22+02:00</time>
      </trkpt>
      <trkpt lat="45.93584" lon="4.51764">
        <ele>469</ele>
        <time>2021-10-25T16:48:27+02:00</time>
      </trkpt>
      <trkpt lat="45.93565" lon="4.51779">
        <ele>466</ele>
        <time>2021-10-25T16:48:32+02:00</time>
      </trkpt>
      <trkpt lat="45.93548" lon="4.51795">
        <ele>464</ele>
        <time>2021-10-25T16:48:37+02:00</time>
      </trkpt>
      <trkpt lat="45.93525" lon="4.51824">
        <ele>463</ele>
        <time>2021-10-25T16:48:42+02:00</time>
      </trkpt>
      <trkpt lat="45.93477" lon="4.51868">
        <ele>459</ele>
        <time>2021-10-25T16:48:47+02:00</time>
      </trkpt>
      <trkpt lat="45.93378" lon="4.51951">
        <ele>454</ele>
        <time>2021-10-25T16:48:52+02:00</time>
      </trkpt>
      <trkpt lat="45.9319" lon="4.52044">
        <ele>437</ele>
        <time>2021-10-25T16:48:57+02:00</time>
      </trkpt>
      <trkpt lat="45.93082" lon="4.521">
        <ele>432</ele>
        <time>2021-10-25T16:49:02+02:00</time>
      </trkpt>
      <trkpt lat="45.9301" lon="4.52151">
        <ele>431</ele>
        <time>2021-10-25T16:49:07+02:00</time>
      </trkpt>
      <trkpt lat="45.92961" lon="4.52212">
        <ele>428</ele>
        <time>2021-10-25T16:49:12+02:00</time>
      </trkpt>
      <trkpt lat="45.92871" lon="4.52225">
        <ele>425</ele>
        <time>2021-10-25T16:49:17+02:00</time>
      </trkpt>
      <trkpt lat="45.92816" lon="4.52225">
        <ele>424</ele>
        <time>2021-10-25T16:49:22+02:00</time>
      </trkpt>
      <trkpt lat="45.92738" lon="4.52215">
        <ele>424</ele>
        <time>2021-10-25T16:49:27+02:00</time>
      </trkpt>
      <trkpt lat="45.92702" lon="4.52216">
        <ele>424</ele>
        <time>2021-10-25T16:49:32+02:00</time>
      </trkpt>
      <trkpt lat="45.92601" lon="4.52281">
        <ele>422</ele>
        <time>2021-10-25T16:49:37+02:00</time>
      </trkpt>
      <trkpt lat="45.92557" lon="4.523">
        <ele>423</ele>
        <time>2021-10-25T16:49:42+02:00</time>
      </trkpt>
      <trkpt lat="45.92498" lon="4.5234">
        <ele>426</ele>
        <time>2021-10-25T16:49:47+02:00</time>
      </trkpt>
      <trkpt lat="45.92401" lon="4.52387">
        <ele>424</ele>
        <time>2021-10-25T16:49:52+02:00</time>
      </trkpt>
      <trkpt lat="45.92333" lon="4.5242">
        <ele>420</ele>
        <time>2021-10-25T16:49:57+02:00</time>
      </trkpt>
      <trkpt lat="45.92259" lon="4.5246">
        <ele>412</ele>
        <time>2021-10-25T16:50:02+02:00</time>
      </trkpt>
      <trkpt lat="45.92215" lon="4.52491">
        <ele>407</ele>
        <time>2021-10-25T16:50:07+02:00</time>
      </trkpt>
      <trkpt lat="45.92194" lon="4.52509">
        <ele>404</ele>
        <time>2021-10-25T16:50:12+02:00</time>
      </trkpt>
      <trkpt lat="45.9215" lon="4.52553">
        <ele>397</ele>
        <time>2021-10-25T16:50:17+02:00</time>
      </trkpt>
      <trkpt lat="45.91983" lon="4.52744">
        <ele>388</ele>
        <time>2021-10-25T16:50:22+02:00</time>
      </trkpt>
      <trkpt lat="45.91975" lon="4.52752">
        <ele>389</ele>
        <time>2021-10-25T16:50:27+02:00</time>
      </trkpt>
      <trkpt lat="45.91934" lon="4.52777">
        <ele>390</ele>
        <time>2021-10-25T16:50:32+02:00</time>
      </trkpt>
      <trkpt lat="45.91911" lon="4.52789">
        <ele>390</ele>
        <time>2021-10-25T16:50:37+02:00</time>
      </trkpt>
      <trkpt lat="45.91895" lon="4.52783">
        <ele>390</ele>
        <time>2021-10-25T16:50:42+02:00</time>
      </trkpt>
      <trkpt lat="45.91853" lon="4.52812">
        <ele>390</ele>
        <time>2021-10-25T16:50:47+02:00</time>
      </trkpt>
      <trkpt lat="45.91841" lon="4.52804">
        <ele>390</ele>
        <time>2021-10-25T16:50:52+02:00</time>
      </trkpt>
      <trkpt lat="45.91803" lon="4.52791">
        <ele>386</ele>
        <time>2021-10-25T16:50:57+02:00</time>
      </trkpt>
      <trkpt lat="45.91751" lon="4.52775">
        <ele>380</ele>
        <time>2021-10-25T16:51:02+02:00</time>
      </trkpt>
      <trkpt lat="45.91722" lon="4.52766">
        <ele>374</ele>
        <time>2021-10-25T16:51:07+02:00</time>
      </trkpt>
      <trkpt lat="45.91718" lon="4.52789">
        <ele>373</ele>
        <time>2021-10-25T16:51:12+02:00</time>
      </trkpt>
      <trkpt lat="45.91712" lon="4.52824">
        <ele>372</ele>
        <time>2021-10-25T16:51:17+02:00</time>
      </trkpt>
      <trkpt lat="45.91701" lon="4.52883">
        <ele>371</ele>
        <time>2021-10-25T16:51:22+02:00</time>
      </trkpt>
      <trkpt lat="45.9169" lon="4.52947">
        <ele>371</ele>
        <time>2021-10-25T16:51:27+02:00</time>
      </trkpt>
      <trkpt lat="45.91683" lon="4.52987">
        <ele>372</ele>
        <time>2021-10-25T16:51:32+02:00</time>
      </trkpt>
      <trkpt lat="45.91674" lon="4.53036">
        <ele>374</ele>
        <time>2021-10-25T16:51:37+02:00</time>
      </trkpt>
      <trkpt lat="45.9167" lon="4.53095">
        <ele>376</ele>
        <time>2021-10-25T16:51:42+02:00</time>
      </trkpt>
      <trkpt lat="45.91674" lon="4.53113">
        <ele>377</ele>
        <time>2021-10-25T16:51:47+02:00</time>
      </trkpt>
      <trkpt lat="45.91691" lon="4.53175">
        <ele>378</ele>
        <time>2021-10-25T16:51:52+02:00</time>
      </trkpt>
      <trkpt lat="45.91657" lon="4.53248">
        <ele>372</ele>
        <time>2021-10-25T16:51:57+02:00</time>
      </trkpt>
      <trkpt lat="45.91626" lon="4.53303">
        <ele>367</ele>
        <time>2021-10-25T16:52:02+02:00</time>
      </trkpt>
      <trkpt lat="45.91619" lon="4.53305">
        <ele>367</ele>
        <time>2021-10-25T16:52:07+02:00</time>
      </trkpt>
      <trkpt lat="45.91604" lon="4.53317">
        <ele>366</ele>
        <time>2021-10-25T16:52:12+02:00</time>
      </trkpt>
      <trkpt lat="45.91571" lon="4.53359">
        <ele>363</ele>
        <time>2021-10-25T16:52:17+02:00</time>
      </trkpt>
      <trkpt lat="45.91533" lon="4.53397">
        <ele>362</ele>
        <time>2021-10-25T16:52:22+02:00</time>
      </trkpt>
      <trkpt lat="45.9149" lon="4.53432">
        <ele>362</ele>
        <time>2021-10-25T16:52:27+02:00</time>
      </trkpt>
      <trkpt lat="45.91478" lon="4.53446">
        <ele>361</ele>
        <time>2021-10-25T16:52:32+02:00</time>
      </trkpt>
      <trkpt lat="45.91464" lon="4.53462">
        <ele>361</ele>
        <time>2021-10-25T16:52:37+02:00</time>
      </trkpt>
      <trkpt lat="45.91435" lon="4.53476">
        <ele>360</ele>
        <time>2021-10-25T16:52:42+02:00</time>
      </trkpt>
      <trkpt lat="45.91413" lon="4.53498">
        <ele>360</ele>
        <time>2021-10-25T16:52:47+02:00</time>
      </trkpt>
      <trkpt lat="45.91399" lon="4.5352">
        <ele>358</ele>
        <time>2021-10-25T16:52:52+02:00</time>
      </trkpt>
      <trkpt lat="45.9138" lon="4.53539">
        <ele>357</ele>
        <time>2021-10-25T16:52:57+02:00</time>
      </trkpt>
      <trkpt lat="45.91355" lon="4.53556">
        <ele>355</ele>
        <time>2021-10-25T16:53:02+02:00</time>
      </trkpt>
      <trkpt lat="45.9134" lon="4.53571">
        <ele>354</ele>
        <time>2021-10-25T16:53:07+02:00</time>
      </trkpt>
      <trkpt lat="45.91328" lon="4.53584">
        <ele>353</ele>
        <time>2021-10-25T16:53:12+02:00</time>
      </trkpt>
      <trkpt lat="45.91285" lon="4.53641">
        <ele>348</ele>
        <time>2021-10-25T16:53:17+02:00</time>
      </trkpt>
      <trkpt lat="45.91286" lon="4.53659">
        <ele>348</ele>
        <time>2021-10-25T16:53:22+02:00</time>
      </trkpt>
      <trkpt lat="45.91288" lon="4.53673">
        <ele>348</ele>
        <time>2021-10-25T16:53:27+02:00</time>
      </trkpt>
      <trkpt lat="45.91313" lon="4.5374">
        <ele>347</ele>
        <time>2021-10-25T16:53:32+02:00</time>
      </trkpt>
      <trkpt lat="45.91327" lon="4.53763">
        <ele>346</ele>
        <time>2021-10-25T16:53:37+02:00</time>
      </trkpt>
      <trkpt lat="45.91342" lon="4.53799">
        <ele>344</ele>
        <time>2021-10-25T16:53:42+02:00</time>
      </trkpt>
      <trkpt lat="45.91356" lon="4.53825">
        <ele>342</ele>
        <time>2021-10-25T16:53:47+02:00</time>
      </trkpt>
      <trkpt lat="45.91381" lon="4.53874">
        <ele>337</ele>
        <time>2021-10-25T16:53:52+02:00</time>
      </trkpt>
      <trkpt lat="45.91393" lon="4.53899">
        <ele>334</ele>
        <time>2021-10-25T16:53:57+02:00</time>
      </trkpt>
      <trkpt lat="45.91416" lon="4.53945">
        <ele>330</ele>
        <time>2021-10-25T16:54:02+02:00</time>
      </trkpt>
      <trkpt lat="45.91425" lon="4.53981">
        <ele>329</ele>
        <time>2021-10-25T16:54:07+02:00</time>
      </trkpt>
      <trkpt lat="45.91431" lon="4.54079">
        <ele>332</ele>
        <time>2021-10-25T16:54:12+02:00</time>
      </trkpt>
      <trkpt lat="45.91439" lon="4.54112">
        <ele>334</ele>
        <time>2021-10-25T16:54:17+02:00</time>
      </trkpt>
      <trkpt lat="45.91475" lon="4.54171">
        <ele>339</ele>
        <time>2021-10-25T16:54:22+02:00</time>
      </trkpt>
      <trkpt lat="45.9149" lon="4.54204">
        <ele>343</ele>
        <time>2021-10-25T16:54:27+02:00</time>
      </trkpt>
      <trkpt lat="45.9146" lon="4.54219">
        <ele>342</ele>
        <time>2021-10-25T16:54:32+02:00</time>
      </trkpt>
      <trkpt lat="45.91468" lon="4.54269">
        <ele>346</ele>
        <time>2021-10-25T16:54:37+02:00</time>
      </trkpt>
      <trkpt lat="45.91462" lon="4.54294">
        <ele>347</ele>
        <time>2021-10-25T16:54:42+02:00</time>
      </trkpt>
      <trkpt lat="45.91453" lon="4.54324">
        <ele>349</ele>
        <time>2021-10-25T16:54:47+02:00</time>
      </trkpt>
      <trkpt lat="45.91434" lon="4.54405">
        <ele>355</ele>
        <time>2021-10-25T16:54:52+02:00</time>
      </trkpt>
      <trkpt lat="45.91435" lon="4.54438">
        <ele>357</ele>
        <time>2021-10-25T16:54:57+02:00</time>
      </trkpt>
      <trkpt lat="45.91437" lon="4.54465">
        <ele>360</ele>
        <time>2021-10-25T16:55:02+02:00</time>
      </trkpt>
      <trkpt lat="45.91455" lon="4.54553">
        <ele>368</ele>
        <time>2021-10-25T16:55:07+02:00</time>
      </trkpt>
      <trkpt lat="45.91453" lon="4.54572">
        <ele>369</ele>
        <time>2021-10-25T16:55:12+02:00</time>
      </trkpt>
      <trkpt lat="45.91457" lon="4.54574">
        <ele>370</ele>
        <time>2021-10-25T16:55:17+02:00</time>
      </trkpt>
      <trkpt lat="45.91463" lon="4.54606">
        <ele>372</ele>
        <time>2021-10-25T16:55:22+02:00</time>
      </trkpt>
      <trkpt lat="45.91488" lon="4.54671">
        <ele>377</ele>
        <time>2021-10-25T16:55:27+02:00</time>
      </trkpt>
      <trkpt lat="45.91551" lon="4.54861">
        <ele>378</ele>
        <time>2021-10-25T16:55:32+02:00</time>
      </trkpt>
      <trkpt lat="45.91587" lon="4.55156">
        <ele>365</ele>
        <time>2021-10-25T16:55:37+02:00</time>
      </trkpt>
      <trkpt lat="45.91607" lon="4.55297">
        <ele>352</ele>
        <time>2021-10-25T16:55:42+02:00</time>
      </trkpt>
      <trkpt lat="45.91618" lon="4.55341">
        <ele>348</ele>
        <time>2021-10-25T16:55:47+02:00</time>
      </trkpt>
      <trkpt lat="45.91633" lon="4.55379">
        <ele>345</ele>
        <time>2021-10-25T16:55:52+02:00</time>
      </trkpt>
      <trkpt lat="45.91689" lon="4.55475">
        <ele>337</ele>
        <time>2021-10-25T16:55:57+02:00</time>
      </trkpt>
      <trkpt lat="45.91698" lon="4.55497">
        <ele>335</ele>
        <time>2021-10-25T16:56:02+02:00</time>
      </trkpt>
      <trkpt lat="45.91702" lon="4.55525">
        <ele>334</ele>
        <time>2021-10-25T16:56:07+02:00</time>
      </trkpt>
      <trkpt lat="45.91719" lon="4.55557">
        <ele>330</ele>
        <time>2021-10-25T16:56:12+02:00</time>
      </trkpt>
      <trkpt lat="45.91719" lon="4.5558">
        <ele>330</ele>
        <time>2021-10-25T16:56:17+02:00</time>
      </trkpt>
      <trkpt lat="45.91696" lon="4.55613">
        <ele>334</ele>
        <time>2021-10-25T16:56:22+02:00</time>
      </trkpt>
      <trkpt lat="45.91696" lon="4.55638">
        <ele>333</ele>
        <time>2021-10-25T16:56:27+02:00</time>
      </trkpt>
      <trkpt lat="45.9169" lon="4.55674">
        <ele>333</ele>
        <time>2021-10-25T16:56:32+02:00</time>
      </trkpt>
      <trkpt lat="45.91666" lon="4.55734">
        <ele>335</ele>
        <time>2021-10-25T16:56:37+02:00</time>
      </trkpt>
      <trkpt lat="45.91628" lon="4.55813">
        <ele>331</ele>
        <time>2021-10-25T16:56:42+02:00</time>
      </trkpt>
      <trkpt lat="45.91585" lon="4.55886">
        <ele>328</ele>
        <time>2021-10-25T16:56:47+02:00</time>
      </trkpt>
      <trkpt lat="45.91534" lon="4.55956">
        <ele>321</ele>
        <time>2021-10-25T16:56:52+02:00</time>
      </trkpt>
      <trkpt lat="45.91507" lon="4.5598">
        <ele>320</ele>
        <time>2021-10-25T16:56:57+02:00</time>
      </trkpt>
      <trkpt lat="45.91484" lon="4.56011">
        <ele>316</ele>
        <time>2021-10-25T16:57:02+02:00</time>
      </trkpt>
      <trkpt lat="45.91478" lon="4.56011">
        <ele>316</ele>
        <time>2021-10-25T16:57:07+02:00</time>
      </trkpt>
      <trkpt lat="45.91456" lon="4.55993">
        <ele>316</ele>
        <time>2021-10-25T16:57:12+02:00</time>
      </trkpt>
      <trkpt lat="45.91429" lon="4.55971">
        <ele>316</ele>
        <time>2021-10-25T16:57:17+02:00</time>
      </trkpt>
      <trkpt lat="45.91416" lon="4.55949">
        <ele>317</ele>
        <time>2021-10-25T16:57:22+02:00</time>
      </trkpt>
      <trkpt lat="45.91384" lon="4.55937">
        <ele>320</ele>
        <time>2021-10-25T16:57:27+02:00</time>
      </trkpt>
      <trkpt lat="45.91347" lon="4.55933">
        <ele>322</ele>
        <time>2021-10-25T16:57:32+02:00</time>
      </trkpt>
      <trkpt lat="45.91316" lon="4.55934">
        <ele>323</ele>
        <time>2021-10-25T16:57:37+02:00</time>
      </trkpt>
      <trkpt lat="45.91294" lon="4.55938">
        <ele>324</ele>
        <time>2021-10-25T16:57:42+02:00</time>
      </trkpt>
      <trkpt lat="45.91278" lon="4.55941">
        <ele>324</ele>
        <time>2021-10-25T16:57:47+02:00</time>
      </trkpt>
      <trkpt lat="45.91256" lon="4.55951">
        <ele>324</ele>
        <time>2021-10-25T16:57:52+02:00</time>
      </trkpt>
      <trkpt lat="45.91215" lon="4.5599">
        <ele>322</ele>
        <time>2021-10-25T16:57:57+02:00</time>
      </trkpt>
      <trkpt lat="45.9119" lon="4.56004">
        <ele>321</ele>
        <time>2021-10-25T16:58:02+02:00</time>
      </trkpt>
      <trkpt lat="45.91165" lon="4.5601">
        <ele>320</ele>
        <time>2021-10-25T16:58:07+02:00</time>
      </trkpt>
      <trkpt lat="45.91109" lon="4.56008">
        <ele>314</ele>
        <time>2021-10-25T16:58:12+02:00</time>
      </trkpt>
      <trkpt lat="45.91073" lon="4.56007">
        <ele>310</ele>
        <time>2021-10-25T16:58:17+02:00</time>
      </trkpt>
      <trkpt lat="45.91037" lon="4.56012">
        <ele>308</ele>
        <time>2021-10-25T16:58:22+02:00</time>
      </trkpt>
      <trkpt lat="45.91006" lon="4.5602">
        <ele>306</ele>
        <time>2021-10-25T16:58:27+02:00</time>
      </trkpt>
      <trkpt lat="45.90986" lon="4.56036">
        <ele>306</ele>
        <time>2021-10-25T16:58:32+02:00</time>
      </trkpt>
      <trkpt lat="45.90972" lon="4.56061">
        <ele>307</ele>
        <time>2021-10-25T16:58:37+02:00</time>
      </trkpt>
      <trkpt lat="45.9097" lon="4.5609">
        <ele>306</ele>
        <time>2021-10-25T16:58:42+02:00</time>
      </trkpt>
      <trkpt lat="45.90977" lon="4.56123">
        <ele>305</ele>
        <time>2021-10-25T16:58:47+02:00</time>
      </trkpt>
      <trkpt lat="45.90986" lon="4.56151">
        <ele>304</ele>
        <time>2021-10-25T16:58:52+02:00</time>
      </trkpt>
      <trkpt lat="45.91007" lon="4.56204">
        <ele>301</ele>
        <time>2021-10-25T16:58:57+02:00</time>
      </trkpt>
      <trkpt lat="45.91009" lon="4.56221">
        <ele>301</ele>
        <time>2021-10-25T16:59:02+02:00</time>
      </trkpt>
      <trkpt lat="45.91006" lon="4.5628">
        <ele>298</ele>
        <time>2021-10-25T16:59:07+02:00</time>
      </trkpt>
      <trkpt lat="45.91011" lon="4.56307">
        <ele>298</ele>
        <time>2021-10-25T16:59:12+02:00</time>
      </trkpt>
      <trkpt lat="45.91017" lon="4.56369">
        <ele>296</ele>
        <time>2021-10-25T16:59:17+02:00</time>
      </trkpt>
      <trkpt lat="45.91017" lon="4.56414">
        <ele>295</ele>
        <time>2021-10-25T16:59:22+02:00</time>
      </trkpt>
      <trkpt lat="45.90997" lon="4.56458">
        <ele>294</ele>
        <time>2021-10-25T16:59:27+02:00</time>
      </trkpt>
      <trkpt lat="45.91004" lon="4.5652">
        <ele>294</ele>
        <time>2021-10-25T16:59:32+02:00</time>
      </trkpt>
      <trkpt lat="45.91006" lon="4.56559">
        <ele>293</ele>
        <time>2021-10-25T16:59:37+02:00</time>
      </trkpt>
      <trkpt lat="45.91005" lon="4.56596">
        <ele>292</ele>
        <time>2021-10-25T16:59:42+02:00</time>
      </trkpt>
      <trkpt lat="45.90992" lon="4.56645">
        <ele>292</ele>
        <time>2021-10-25T16:59:47+02:00</time>
      </trkpt>
      <trkpt lat="45.90977" lon="4.56714">
        <ele>290</ele>
        <time>2021-10-25T16:59:52+02:00</time>
      </trkpt>
      <trkpt lat="45.90967" lon="4.56793">
        <ele>288</ele>
        <time>2021-10-25T16:59:57+02:00</time>
      </trkpt>
      <trkpt lat="45.9096" lon="4.56814">
        <ele>287</ele>
        <time>2021-10-25T17:00:02+02:00</time>
      </trkpt>
      <trkpt lat="45.90938" lon="4.56832">
        <ele>290</ele>
        <time>2021-10-25T17:00:07+02:00</time>
      </trkpt>
      <trkpt lat="45.90903" lon="4.5685">
        <ele>291</ele>
        <time>2021-10-25T17:00:12+02:00</time>
      </trkpt>
      <trkpt lat="45.9088" lon="4.56859">
        <ele>291</ele>
        <time>2021-10-25T17:00:17+02:00</time>
      </trkpt>
      <trkpt lat="45.90869" lon="4.56855">
        <ele>291</ele>
        <time>2021-10-25T17:00:22+02:00</time>
      </trkpt>
      <trkpt lat="45.90855" lon="4.56852">
        <ele>291</ele>
        <time>2021-10-25T17:00:27+02:00</time>
      </trkpt>
      <trkpt lat="45.90839" lon="4.56836">
        <ele>291</ele>
        <time>2021-10-25T17:00:32+02:00</time>
      </trkpt>
      <trkpt lat="45.90807" lon="4.56838">
        <ele>292</ele>
        <time>2021-10-25T17:00:37+02:00</time>
      </trkpt>
      <trkpt lat="45.90783" lon="4.56868">
        <ele>292</ele>
        <time>2021-10-25T17:00:42+02:00</time>
      </trkpt>
      <trkpt lat="45.90747" lon="4.56882">
        <ele>293</ele>
        <time>2021-10-25T17:00:47+02:00</time>
      </trkpt>
      <trkpt lat="45.9073" lon="4.56883">
        <ele>292</ele>
        <time>2021-10-25T17:00:52+02:00</time>
      </trkpt>
      <trkpt lat="45.90707" lon="4.56899">
        <ele>290</ele>
        <time>2021-10-25T17:00:57+02:00</time>
      </trkpt>
      <trkpt lat="45.9066" lon="4.56899">
        <ele>288</ele>
        <time>2021-10-25T17:01:02+02:00</time>
      </trkpt>
      <trkpt lat="45.90654" lon="4.5689">
        <ele>287</ele>
        <time>2021-10-25T17:01:07+02:00</time>
      </trkpt>
      <trkpt lat="45.90648" lon="4.56883">
        <ele>287</ele>
        <time>2021-10-25T17:01:12+02:00</time>
      </trkpt>
      <trkpt lat="45.90652" lon="4.56915">
        <ele>287</ele>
        <time>2021-10-25T17:01:17+02:00</time>
      </trkpt>
      <trkpt lat="45.90659" lon="4.56999">
        <ele>285</ele>
        <time>2021-10-25T17:01:22+02:00</time>
      </trkpt>
      <trkpt lat="45.90646" lon="4.57037">
        <ele>282</ele>
        <time>2021-10-25T17:01:27+02:00</time>
      </trkpt>
      <trkpt lat="45.90638" lon="4.57067">
        <ele>280</ele>
        <time>2021-10-25T17:01:32+02:00</time>
      </trkpt>
      <trkpt lat="45.9064" lon="4.571">
        <ele>277</ele>
        <time>2021-10-25T17:01:37+02:00</time>
      </trkpt>
      <trkpt lat="45.90644" lon="4.57128">
        <ele>274</ele>
        <time>2021-10-25T17:01:42+02:00</time>
      </trkpt>
      <trkpt lat="45.90653" lon="4.57164">
        <ele>270</ele>
        <time>2021-10-25T17:01:47+02:00</time>
      </trkpt>
      <trkpt lat="45.90654" lon="4.57176">
        <ele>268</ele>
        <time>2021-10-25T17:01:52+02:00</time>
      </trkpt>
      <trkpt lat="45.90653" lon="4.57213">
        <ele>262</ele>
        <time>2021-10-25T17:01:57+02:00</time>
      </trkpt>
      <trkpt lat="45.90643" lon="4.5724">
        <ele>257</ele>
        <time>2021-10-25T17:02:02+02:00</time>
      </trkpt>
      <trkpt lat="45.90631" lon="4.57245">
        <ele>255</ele>
        <time>2021-10-25T17:02:07+02:00</time>
      </trkpt>
      <trkpt lat="45.90621" lon="4.57242">
        <ele>255</ele>
        <time>2021-10-25T17:02:12+02:00</time>
      </trkpt>
      <trkpt lat="45.90609" lon="4.57238">
        <ele>255</ele>
        <time>2021-10-25T17:02:17+02:00</time>
      </trkpt>
      <trkpt lat="45.90598" lon="4.57232">
        <ele>255</ele>
        <time>2021-10-25T17:02:22+02:00</time>
      </trkpt>
      <trkpt lat="45.90588" lon="4.57227">
        <ele>255</ele>
        <time>2021-10-25T17:02:27+02:00</time>
      </trkpt>
      <trkpt lat="45.90585" lon="4.57228">
        <ele>255</ele>
        <time>2021-10-25T17:02:32+02:00</time>
      </trkpt>
      <trkpt lat="45.9058" lon="4.5723">
        <ele>254</ele>
        <time>2021-10-25T17:02:37+02:00</time>
      </trkpt>
      <trkpt lat="45.90579" lon="4.57238">
        <ele>253</ele>
        <time>2021-10-25T17:02:42+02:00</time>
      </trkpt>
      <trkpt lat="45.90586" lon="4.57253">
        <ele>251</ele>
        <time>2021-10-25T17:02:47+02:00</time>
      </trkpt>
      <trkpt lat="45.90587" lon="4.57268">
        <ele>250</ele>
        <time>2021-10-25T17:02:52+02:00</time>
      </trkpt>
      <trkpt lat="45.90599" lon="4.57292">
        <ele>249</ele>
        <time>2021-10-25T17:02:57+02:00</time>
      </trkpt>
      <trkpt lat="45.9062" lon="4.57332">
        <ele>246</ele>
        <time>2021-10-25T17:03:02+02:00</time>
      </trkpt>
      <trkpt lat="45.90625" lon="4.57338">
        <ele>245</ele>
        <time>2021-10-25T17:03:07+02:00</time>
      </trkpt>
      <trkpt lat="45.90629" lon="4.57343">
        <ele>245</ele>
        <time>2021-10-25T17:03:12+02:00</time>
      </trkpt>
      <trkpt lat="45.90699" lon="4.57395">
        <ele>247</ele>
        <time>2021-10-25T17:03:17+02:00</time>
      </trkpt>
      <trkpt lat="45.90711" lon="4.57401">
        <ele>248</ele>
        <time>2021-10-25T17:03:22+02:00</time>
      </trkpt>
      <trkpt lat="45.90708" lon="4.57408">
        <ele>248</ele>
        <time>2021-10-25T17:03:27+02:00</time>
      </trkpt>
      <trkpt lat="45.9071" lon="4.57414">
        <ele>249</ele>
        <time>2021-10-25T17:03:32+02:00</time>
      </trkpt>
      <trkpt lat="45.90712" lon="4.57417">
        <ele>249</ele>
        <time>2021-10-25T17:03:37+02:00</time>
      </trkpt>
      <trkpt lat="45.90716" lon="4.57419">
        <ele>249</ele>
        <time>2021-10-25T17:03:42+02:00</time>
      </trkpt>
      <trkpt lat="45.9072" lon="4.57416">
        <ele>250</ele>
        <time>2021-10-25T17:03:47+02:00</time>
      </trkpt>
      <trkpt lat="45.90723" lon="4.57411">
        <ele>250</ele>
        <time>2021-10-25T17:03:52+02:00</time>
      </trkpt>
      <trkpt lat="45.90731" lon="4.57421">
        <ele>251</ele>
        <time>2021-10-25T17:03:57+02:00</time>
      </trkpt>
      <trkpt lat="45.90735" lon="4.5743">
        <ele>252</ele>
        <time>2021-10-25T17:04:02+02:00</time>
      </trkpt>
      <trkpt lat="45.90739" lon="4.57442">
        <ele>252</ele>
        <time>2021-10-25T17:04:07+02:00</time>
      </trkpt>
      <trkpt lat="45.90762" lon="4.5747">
        <ele>256</ele>
        <time>2021-10-25T17:04:12+02:00</time>
      </trkpt>
      <trkpt lat="45.90765" lon="4.57493">
        <ele>257</ele>
        <time>2021-10-25T17:04:17+02:00</time>
      </trkpt>
      <trkpt lat="45.90775" lon="4.57529">
        <ele>259</ele>
        <time>2021-10-25T17:04:22+02:00</time>
      </trkpt>
      <trkpt lat="45.90776" lon="4.57545">
        <ele>260</ele>
        <time>2021-10-25T17:04:27+02:00</time>
      </trkpt>
      <trkpt lat="45.9079" lon="4.5758">
        <ele>263</ele>
        <time>2021-10-25T17:04:32+02:00</time>
      </trkpt>
      <trkpt lat="45.90802" lon="4.57664">
        <ele>264</ele>
        <time>2021-10-25T17:04:37+02:00</time>
      </trkpt>
      <trkpt lat="45.90814" lon="4.57698">
        <ele>268</ele>
        <time>2021-10-25T17:04:42+02:00</time>
      </trkpt>
      <trkpt lat="45.90875" lon="4.5782">
        <ele>283</ele>
        <time>2021-10-25T17:04:47+02:00</time>
      </trkpt>
      <trkpt lat="45.90888" lon="4.57879">
        <ele>286</ele>
        <time>2021-10-25T17:04:52+02:00</time>
      </trkpt>
      <trkpt lat="45.90896" lon="4.57893">
        <ele>287</ele>
        <time>2021-10-25T17:04:57+02:00</time>
      </trkpt>
      <trkpt lat="45.90888" lon="4.57909">
        <ele>287</ele>
        <time>2021-10-25T17:05:02+02:00</time>
      </trkpt>
      <trkpt lat="45.90912" lon="4.57997">
        <ele>289</ele>
        <time>2021-10-25T17:05:07+02:00</time>
      </trkpt>
      <trkpt lat="45.90909" lon="4.58113">
        <ele>299</ele>
        <time>2021-10-25T17:05:12+02:00</time>
      </trkpt>
      <trkpt lat="45.90917" lon="4.58131">
        <ele>301</ele>
        <time>2021-10-25T17:05:17+02:00</time>
      </trkpt>
      <trkpt lat="45.9091" lon="4.58158">
        <ele>303</ele>
        <time>2021-10-25T17:05:22+02:00</time>
      </trkpt>
      <trkpt lat="45.9091" lon="4.58205">
        <ele>307</ele>
        <time>2021-10-25T17:05:27+02:00</time>
      </trkpt>
      <trkpt lat="45.90918" lon="4.5826">
        <ele>312</ele>
        <time>2021-10-25T17:05:32+02:00</time>
      </trkpt>
      <trkpt lat="45.90861" lon="4.58318">
        <ele>313</ele>
        <time>2021-10-25T17:05:37+02:00</time>
      </trkpt>
      <trkpt lat="45.90838" lon="4.5837">
        <ele>314</ele>
        <time>2021-10-25T17:05:42+02:00</time>
      </trkpt>
      <trkpt lat="45.90836" lon="4.58399">
        <ele>315</ele>
        <time>2021-10-25T17:05:47+02:00</time>
      </trkpt>
      <trkpt lat="45.90875" lon="4.58429">
        <ele>320</ele>
        <time>2021-10-25T17:05:52+02:00</time>
      </trkpt>
      <trkpt lat="45.90905" lon="4.58467">
        <ele>324</ele>
        <time>2021-10-25T17:05:57+02:00</time>
      </trkpt>
      <trkpt lat="45.90905" lon="4.58501">
        <ele>325</ele>
        <time>2021-10-25T17:06:02+02:00</time>
      </trkpt>
      <trkpt lat="45.90914" lon="4.58585">
        <ele>327</ele>
        <time>2021-10-25T17:06:07+02:00</time>
      </trkpt>
      <trkpt lat="45.90933" lon="4.58684">
        <ele>323</ele>
        <time>2021-10-25T17:06:12+02:00</time>
      </trkpt>
      <trkpt lat="45.90949" lon="4.5872">
        <ele>320</ele>
        <time>2021-10-25T17:06:17+02:00</time>
      </trkpt>
      <trkpt lat="45.91009" lon="4.58792">
        <ele>315</ele>
        <time>2021-10-25T17:06:22+02:00</time>
      </trkpt>
      <trkpt lat="45.91064" lon="4.58858">
        <ele>308</ele>
        <time>2021-10-25T17:06:27+02:00</time>
      </trkpt>
      <trkpt lat="45.91136" lon="4.58947">
        <ele>300</ele>
        <time>2021-10-25T17:06:32+02:00</time>
      </trkpt>
      <trkpt lat="45.91177" lon="4.58978">
        <ele>299</ele>
        <time>2021-10-25T17:06:37+02:00</time>
      </trkpt>
      <trkpt lat="45.91205" lon="4.58985">
        <ele>300</ele>
        <time>2021-10-25T17:06:42+02:00</time>
      </trkpt>
      <trkpt lat="45.91227" lon="4.58983">
        <ele>302</ele>
        <time>2021-10-25T17:06:47+02:00</time>
      </trkpt>
      <trkpt lat="45.91235" lon="4.58986">
        <ele>302</ele>
        <time>2021-10-25T17:06:52+02:00</time>
      </trkpt>
      <trkpt lat="45.91244" lon="4.58991">
        <ele>302</ele>
        <time>2021-10-25T17:06:57+02:00</time>
      </trkpt>
      <trkpt lat="45.91253" lon="4.58997">
        <ele>302</ele>
        <time>2021-10-25T17:07:02+02:00</time>
      </trkpt>
      <trkpt lat="45.91272" lon="4.59012">
        <ele>302</ele>
        <time>2021-10-25T17:07:07+02:00</time>
      </trkpt>
      <trkpt lat="45.91294" lon="4.59029">
        <ele>302</ele>
        <time>2021-10-25T17:07:12+02:00</time>
      </trkpt>
      <trkpt lat="45.91337" lon="4.59061">
        <ele>301</ele>
        <time>2021-10-25T17:07:17+02:00</time>
      </trkpt>
      <trkpt lat="45.91355" lon="4.59076">
        <ele>301</ele>
        <time>2021-10-25T17:07:22+02:00</time>
      </trkpt>
      <trkpt lat="45.91367" lon="4.59086">
        <ele>301</ele>
        <time>2021-10-25T17:07:27+02:00</time>
      </trkpt>
      <trkpt lat="45.91378" lon="4.59091">
        <ele>302</ele>
        <time>2021-10-25T17:07:32+02:00</time>
      </trkpt>
      <trkpt lat="45.91442" lon="4.59127">
        <ele>304</ele>
        <time>2021-10-25T17:07:37+02:00</time>
      </trkpt>
      <trkpt lat="45.91464" lon="4.59145">
        <ele>304</ele>
        <time>2021-10-25T17:07:42+02:00</time>
      </trkpt>
      <trkpt lat="45.9148" lon="4.59161">
        <ele>305</ele>
        <time>2021-10-25T17:07:47+02:00</time>
      </trkpt>
      <trkpt lat="45.9151" lon="4.59172">
        <ele>307</ele>
        <time>2021-10-25T17:07:52+02:00</time>
      </trkpt>
      <trkpt lat="45.91537" lon="4.59174">
        <ele>308</ele>
        <time>2021-10-25T17:07:57+02:00</time>
      </trkpt>
      <trkpt lat="45.9156" lon="4.59174">
        <ele>309</ele>
        <time>2021-10-25T17:08:02+02:00</time>
      </trkpt>
      <trkpt lat="45.91583" lon="4.59172">
        <ele>311</ele>
        <time>2021-10-25T17:08:07+02:00</time>
      </trkpt>
      <trkpt lat="45.91604" lon="4.59172">
        <ele>311</ele>
        <time>2021-10-25T17:08:12+02:00</time>
      </trkpt>
      <trkpt lat="45.91636" lon="4.59172">
        <ele>311</ele>
        <time>2021-10-25T17:08:17+02:00</time>
      </trkpt>
      <trkpt lat="45.91652" lon="4.59169">
        <ele>312</ele>
        <time>2021-10-25T17:08:22+02:00</time>
      </trkpt>
      <trkpt lat="45.91669" lon="4.59162">
        <ele>312</ele>
        <time>2021-10-25T17:08:27+02:00</time>
      </trkpt>
      <trkpt lat="45.91683" lon="4.59149">
        <ele>312</ele>
        <time>2021-10-25T17:08:32+02:00</time>
      </trkpt>
      <trkpt lat="45.91697" lon="4.59134">
        <ele>312</ele>
        <time>2021-10-25T17:08:37+02:00</time>
      </trkpt>
      <trkpt lat="45.91724" lon="4.59093">
        <ele>315</ele>
        <time>2021-10-25T17:08:42+02:00</time>
      </trkpt>
      <trkpt lat="45.91745" lon="4.59071">
        <ele>317</ele>
        <time>2021-10-25T17:08:47+02:00</time>
      </trkpt>
      <trkpt lat="45.91756" lon="4.59063">
        <ele>317</ele>
        <time>2021-10-25T17:08:52+02:00</time>
      </trkpt>
      <trkpt lat="45.9177" lon="4.5906">
        <ele>317</ele>
        <time>2021-10-25T17:08:57+02:00</time>
      </trkpt>
      <trkpt lat="45.91788" lon="4.59039">
        <ele>318</ele>
        <time>2021-10-25T17:09:02+02:00</time>
      </trkpt>
      <trkpt lat="45.91797" lon="4.59023">
        <ele>320</ele>
        <time>2021-10-25T17:09:07+02:00</time>
      </trkpt>
      <trkpt lat="45.91835" lon="4.58978">
        <ele>324</ele>
        <time>2021-10-25T17:09:12+02:00</time>
      </trkpt>
      <trkpt lat="45.9186" lon="4.58946">
        <ele>325</ele>
        <time>2021-10-25T17:09:17+02:00</time>
      </trkpt>
      <trkpt lat="45.91958" lon="4.58749">
        <ele>339</ele>
        <time>2021-10-25T17:09:22+02:00</time>
      </trkpt>
      <trkpt lat="45.91963" lon="4.58755">
        <ele>338</ele>
        <time>2021-10-25T17:09:27+02:00</time>
      </trkpt>
      <trkpt lat="45.9198" lon="4.58768">
        <ele>336</ele>
        <time>2021-10-25T17:09:32+02:00</time>
      </trkpt>
      <trkpt lat="45.92028" lon="4.58789">
        <ele>334</ele>
        <time>2021-10-25T17:09:37+02:00</time>
      </trkpt>
      <trkpt lat="45.92041" lon="4.58773">
        <ele>336</ele>
        <time>2021-10-25T17:09:42+02:00</time>
      </trkpt>
      <trkpt lat="45.92083" lon="4.58787">
        <ele>336</ele>
        <time>2021-10-25T17:09:47+02:00</time>
      </trkpt>
      <trkpt lat="45.92088" lon="4.58767">
        <ele>338</ele>
        <time>2021-10-25T17:09:52+02:00</time>
      </trkpt>
      <trkpt lat="45.92134" lon="4.5879">
        <ele>335</ele>
        <time>2021-10-25T17:09:57+02:00</time>
      </trkpt>
      <trkpt lat="45.92156" lon="4.58791">
        <ele>335</ele>
        <time>2021-10-25T17:10:02+02:00</time>
      </trkpt>
      <trkpt lat="45.92183" lon="4.588">
        <ele>336</ele>
        <time>2021-10-25T17:10:07+02:00</time>
      </trkpt>
      <trkpt lat="45.92201" lon="4.58811">
        <ele>336</ele>
        <time>2021-10-25T17:10:12+02:00</time>
      </trkpt>
      <trkpt lat="45.92221" lon="4.58833">
        <ele>336</ele>
        <time>2021-10-25T17:10:17+02:00</time>
      </trkpt>
      <trkpt lat="45.92235" lon="4.58851">
        <ele>337</ele>
        <time>2021-10-25T17:10:22+02:00</time>
      </trkpt>
      <trkpt lat="45.92311" lon="4.58973">
        <ele>335</ele>
        <time>2021-10-25T17:10:27+02:00</time>
      </trkpt>
      <trkpt lat="45.92324" lon="4.58986">
        <ele>335</ele>
        <time>2021-10-25T17:10:32+02:00</time>
      </trkpt>
      <trkpt lat="45.92342" lon="4.58989">
        <ele>337</ele>
        <time>2021-10-25T17:10:37+02:00</time>
      </trkpt>
      <trkpt lat="45.92348" lon="4.59006">
        <ele>337</ele>
        <time>2021-10-25T17:10:42+02:00</time>
      </trkpt>
      <trkpt lat="45.92354" lon="4.59004">
        <ele>338</ele>
        <time>2021-10-25T17:10:47+02:00</time>
      </trkpt>
      <trkpt lat="45.92385" lon="4.59044">
        <ele>338</ele>
        <time>2021-10-25T17:10:52+02:00</time>
      </trkpt>
      <trkpt lat="45.92411" lon="4.59094">
        <ele>336</ele>
        <time>2021-10-25T17:10:57+02:00</time>
      </trkpt>
      <trkpt lat="45.92421" lon="4.59112">
        <ele>336</ele>
        <time>2021-10-25T17:11:02+02:00</time>
      </trkpt>
      <trkpt lat="45.92471" lon="4.59166">
        <ele>338</ele>
        <time>2021-10-25T17:11:07+02:00</time>
      </trkpt>
      <trkpt lat="45.9252" lon="4.59194">
        <ele>341</ele>
        <time>2021-10-25T17:11:12+02:00</time>
      </trkpt>
      <trkpt lat="45.92587" lon="4.59213">
        <ele>345</ele>
        <time>2021-10-25T17:11:17+02:00</time>
      </trkpt>
      <trkpt lat="45.92627" lon="4.59223">
        <ele>346</ele>
        <time>2021-10-25T17:11:22+02:00</time>
      </trkpt>
      <trkpt lat="45.92633" lon="4.59223">
        <ele>346</ele>
        <time>2021-10-25T17:11:27+02:00</time>
      </trkpt>
      <trkpt lat="45.92643" lon="4.5922">
        <ele>348</ele>
        <time>2021-10-25T17:11:32+02:00</time>
      </trkpt>
      <trkpt lat="45.92661" lon="4.59221">
        <ele>349</ele>
        <time>2021-10-25T17:11:37+02:00</time>
      </trkpt>
      <trkpt lat="45.92685" lon="4.59208">
        <ele>353</ele>
        <time>2021-10-25T17:11:42+02:00</time>
      </trkpt>
      <trkpt lat="45.92718" lon="4.59202">
        <ele>355</ele>
        <time>2021-10-25T17:11:47+02:00</time>
      </trkpt>
      <trkpt lat="45.92728" lon="4.59208">
        <ele>354</ele>
        <time>2021-10-25T17:11:52+02:00</time>
      </trkpt>
      <trkpt lat="45.92743" lon="4.59214">
        <ele>354</ele>
        <time>2021-10-25T17:11:57+02:00</time>
      </trkpt>
      <trkpt lat="45.92764" lon="4.59237">
        <ele>350</ele>
        <time>2021-10-25T17:12:02+02:00</time>
      </trkpt>
      <trkpt lat="45.92773" lon="4.59259">
        <ele>348</ele>
        <time>2021-10-25T17:12:07+02:00</time>
      </trkpt>
      <trkpt lat="45.92775" lon="4.5928">
        <ele>349</ele>
        <time>2021-10-25T17:12:12+02:00</time>
      </trkpt>
      <trkpt lat="45.92773" lon="4.593">
        <ele>349</ele>
        <time>2021-10-25T17:12:17+02:00</time>
      </trkpt>
      <trkpt lat="45.92762" lon="4.59329">
        <ele>351</ele>
        <time>2021-10-25T17:12:22+02:00</time>
      </trkpt>
      <trkpt lat="45.92749" lon="4.59351">
        <ele>356</ele>
        <time>2021-10-25T17:12:27+02:00</time>
      </trkpt>
      <trkpt lat="45.92712" lon="4.59374">
        <ele>357</ele>
        <time>2021-10-25T17:12:32+02:00</time>
      </trkpt>
      <trkpt lat="45.92696" lon="4.59376">
        <ele>355</ele>
        <time>2021-10-25T17:12:37+02:00</time>
      </trkpt>
      <trkpt lat="45.92677" lon="4.59394">
        <ele>355</ele>
        <time>2021-10-25T17:12:42+02:00</time>
      </trkpt>
      <trkpt lat="45.92661" lon="4.59418">
        <ele>357</ele>
        <time>2021-10-25T17:12:47+02:00</time>
      </trkpt>
      <trkpt lat="45.92645" lon="4.59451">
        <ele>359</ele>
        <time>2021-10-25T17:12:52+02:00</time>
      </trkpt>
      <trkpt lat="45.92632" lon="4.59463">
        <ele>360</ele>
        <time>2021-10-25T17:12:57+02:00</time>
      </trkpt>
      <trkpt lat="45.92628" lon="4.59466">
        <ele>361</ele>
        <time>2021-10-25T17:13:02+02:00</time>
      </trkpt>
      <trkpt lat="45.92622" lon="4.59471">
        <ele>361</ele>
        <time>2021-10-25T17:13:07+02:00</time>
      </trkpt>
      <trkpt lat="45.92618" lon="4.59474">
        <ele>361</ele>
        <time>2021-10-25T17:13:12+02:00</time>
      </trkpt>
      <trkpt lat="45.9261" lon="4.59476">
        <ele>361</ele>
        <time>2021-10-25T17:13:17+02:00</time>
      </trkpt>
      <trkpt lat="45.926" lon="4.59478">
        <ele>362</ele>
        <time>2021-10-25T17:13:22+02:00</time>
      </trkpt>
      <trkpt lat="45.92589" lon="4.59476">
        <ele>361</ele>
        <time>2021-10-25T17:13:27+02:00</time>
      </trkpt>
      <trkpt lat="45.92572" lon="4.59473">
        <ele>361</ele>
        <time>2021-10-25T17:13:32+02:00</time>
      </trkpt>
      <trkpt lat="45.92527" lon="4.59453">
        <ele>360</ele>
        <time>2021-10-25T17:13:37+02:00</time>
      </trkpt>
      <trkpt lat="45.92502" lon="4.5945">
        <ele>360</ele>
        <time>2021-10-25T17:13:42+02:00</time>
      </trkpt>
      <trkpt lat="45.92476" lon="4.59453">
        <ele>363</ele>
        <time>2021-10-25T17:13:47+02:00</time>
      </trkpt>
      <trkpt lat="45.92426" lon="4.59432">
        <ele>362</ele>
        <time>2021-10-25T17:13:52+02:00</time>
      </trkpt>
      <trkpt lat="45.92395" lon="4.59417">
        <ele>362</ele>
        <time>2021-10-25T17:13:57+02:00</time>
      </trkpt>
      <trkpt lat="45.92351" lon="4.59412">
        <ele>363</ele>
        <time>2021-10-25T17:14:02+02:00</time>
      </trkpt>
      <trkpt lat="45.92153" lon="4.59443">
        <ele>363</ele>
        <time>2021-10-25T17:14:07+02:00</time>
      </trkpt>
      <trkpt lat="45.92139" lon="4.5946">
        <ele>363</ele>
        <time>2021-10-25T17:14:12+02:00</time>
      </trkpt>
      <trkpt lat="45.92131" lon="4.59469">
        <ele>364</ele>
        <time>2021-10-25T17:14:17+02:00</time>
      </trkpt>
      <trkpt lat="45.92125" lon="4.59484">
        <ele>365</ele>
        <time>2021-10-25T17:14:22+02:00</time>
      </trkpt>
      <trkpt lat="45.9212" lon="4.59506">
        <ele>367</ele>
        <time>2021-10-25T17:14:27+02:00</time>
      </trkpt>
      <trkpt lat="45.92116" lon="4.59531">
        <ele>367</ele>
        <time>2021-10-25T17:14:32+02:00</time>
      </trkpt>
      <trkpt lat="45.92108" lon="4.59585">
        <ele>369</ele>
        <time>2021-10-25T17:14:37+02:00</time>
      </trkpt>
      <trkpt lat="45.92101" lon="4.59638">
        <ele>373</ele>
        <time>2021-10-25T17:14:42+02:00</time>
      </trkpt>
      <trkpt lat="45.92102" lon="4.59654">
        <ele>375</ele>
        <time>2021-10-25T17:14:47+02:00</time>
      </trkpt>
      <trkpt lat="45.92094" lon="4.59673">
        <ele>376</ele>
        <time>2021-10-25T17:14:52+02:00</time>
      </trkpt>
      <trkpt lat="45.92093" lon="4.59691">
        <ele>377</ele>
        <time>2021-10-25T17:14:57+02:00</time>
      </trkpt>
      <trkpt lat="45.92097" lon="4.59706">
        <ele>378</ele>
        <time>2021-10-25T17:15:02+02:00</time>
      </trkpt>
      <trkpt lat="45.92102" lon="4.59729">
        <ele>380</ele>
        <time>2021-10-25T17:15:07+02:00</time>
      </trkpt>
      <trkpt lat="45.92119" lon="4.59728">
        <ele>382</ele>
        <time>2021-10-25T17:15:12+02:00</time>
      </trkpt>
      <trkpt lat="45.92143" lon="4.59734">
        <ele>385</ele>
        <time>2021-10-25T17:15:17+02:00</time>
      </trkpt>
      <trkpt lat="45.9217" lon="4.59748">
        <ele>388</ele>
        <time>2021-10-25T17:15:22+02:00</time>
      </trkpt>
      <trkpt lat="45.92178" lon="4.59754">
        <ele>388</ele>
        <time>2021-10-25T17:15:27+02:00</time>
      </trkpt>
      <trkpt lat="45.92193" lon="4.59772">
        <ele>388</ele>
        <time>2021-10-25T17:15:32+02:00</time>
      </trkpt>
      <trkpt lat="45.92218" lon="4.59797">
        <ele>389</ele>
        <time>2021-10-25T17:15:37+02:00</time>
      </trkpt>
      <trkpt lat="45.92243" lon="4.59816">
        <ele>391</ele>
        <time>2021-10-25T17:15:42+02:00</time>
      </trkpt>
      <trkpt lat="45.92264" lon="4.59835">
        <ele>393</ele>
        <time>2021-10-25T17:15:47+02:00</time>
      </trkpt>
      <trkpt lat="45.92308" lon="4.59871">
        <ele>396</ele>
        <time>2021-10-25T17:15:52+02:00</time>
      </trkpt>
      <trkpt lat="45.92438" lon="4.60001">
        <ele>407</ele>
        <time>2021-10-25T17:15:57+02:00</time>
      </trkpt>
      <trkpt lat="45.92481" lon="4.60064">
        <ele>413</ele>
        <time>2021-10-25T17:16:02+02:00</time>
      </trkpt>
      <trkpt lat="45.9251" lon="4.60092">
        <ele>417</ele>
        <time>2021-10-25T17:16:07+02:00</time>
      </trkpt>
      <trkpt lat="45.92554" lon="4.60117">
        <ele>421</ele>
        <time>2021-10-25T17:16:12+02:00</time>
      </trkpt>
      <trkpt lat="45.92559" lon="4.60114">
        <ele>421</ele>
        <time>2021-10-25T17:16:17+02:00</time>
      </trkpt>
      <trkpt lat="45.9256" lon="4.60106">
        <ele>422</ele>
        <time>2021-10-25T17:16:22+02:00</time>
      </trkpt>
      <trkpt lat="45.92595" lon="4.60041">
        <ele>423</ele>
        <time>2021-10-25T17:16:27+02:00</time>
      </trkpt>
      <trkpt lat="45.92601" lon="4.60054">
        <ele>424</ele>
        <time>2021-10-25T17:16:32+02:00</time>
      </trkpt>
      <trkpt lat="45.92618" lon="4.60048">
        <ele>425</ele>
        <time>2021-10-25T17:16:37+02:00</time>
      </trkpt>
      <trkpt lat="45.92643" lon="4.60056">
        <ele>428</ele>
        <time>2021-10-25T17:16:42+02:00</time>
      </trkpt>
      <trkpt lat="45.92667" lon="4.60062">
        <ele>431</ele>
        <time>2021-10-25T17:16:47+02:00</time>
      </trkpt>
      <trkpt lat="45.92681" lon="4.60075">
        <ele>433</ele>
        <time>2021-10-25T17:16:52+02:00</time>
      </trkpt>
      <trkpt lat="45.9269" lon="4.60074">
        <ele>434</ele>
        <time>2021-10-25T17:16:57+02:00</time>
      </trkpt>
      <trkpt lat="45.92698" lon="4.60082">
        <ele>436</ele>
        <time>2021-10-25T17:17:02+02:00</time>
      </trkpt>
      <trkpt lat="45.92718" lon="4.60114">
        <ele>440</ele>
        <time>2021-10-25T17:17:07+02:00</time>
      </trkpt>
      <trkpt lat="45.92743" lon="4.60138">
        <ele>445</ele>
        <time>2021-10-25T17:17:12+02:00</time>
      </trkpt>
      <trkpt lat="45.92754" lon="4.60144">
        <ele>447</ele>
        <time>2021-10-25T17:17:17+02:00</time>
      </trkpt>
      <trkpt lat="45.92763" lon="4.60188">
        <ele>451</ele>
        <time>2021-10-25T17:17:22+02:00</time>
      </trkpt>
      <trkpt lat="45.92769" lon="4.60236">
        <ele>453</ele>
        <time>2021-10-25T17:17:27+02:00</time>
      </trkpt>
      <trkpt lat="45.9277" lon="4.60269">
        <ele>454</ele>
        <time>2021-10-25T17:17:32+02:00</time>
      </trkpt>
      <trkpt lat="45.9276" lon="4.60352">
        <ele>455</ele>
        <time>2021-10-25T17:17:37+02:00</time>
      </trkpt>
      <trkpt lat="45.92743" lon="4.60373">
        <ele>453</ele>
        <time>2021-10-25T17:17:42+02:00</time>
      </trkpt>
      <trkpt lat="45.92731" lon="4.60396">
        <ele>452</ele>
        <time>2021-10-25T17:17:47+02:00</time>
      </trkpt>
      <trkpt lat="45.92717" lon="4.6041">
        <ele>451</ele>
        <time>2021-10-25T17:17:52+02:00</time>
      </trkpt>
      <trkpt lat="45.92637" lon="4.60493">
        <ele>441</ele>
        <time>2021-10-25T17:17:57+02:00</time>
      </trkpt>
      <trkpt lat="45.92631" lon="4.60498">
        <ele>440</ele>
        <time>2021-10-25T17:18:02+02:00</time>
      </trkpt>
      <trkpt lat="45.92626" lon="4.60503">
        <ele>439</ele>
        <time>2021-10-25T17:18:07+02:00</time>
      </trkpt>
      <trkpt lat="45.92621" lon="4.60511">
        <ele>438</ele>
        <time>2021-10-25T17:18:12+02:00</time>
      </trkpt>
      <trkpt lat="45.92617" lon="4.60518">
        <ele>438</ele>
        <time>2021-10-25T17:18:17+02:00</time>
      </trkpt>
      <trkpt lat="45.92614" lon="4.60526">
        <ele>437</ele>
        <time>2021-10-25T17:18:22+02:00</time>
      </trkpt>
      <trkpt lat="45.92605" lon="4.60524">
        <ele>437</ele>
        <time>2021-10-25T17:18:27+02:00</time>
      </trkpt>
      <trkpt lat="45.92596" lon="4.60537">
        <ele>435</ele>
        <time>2021-10-25T17:18:32+02:00</time>
      </trkpt>
      <trkpt lat="45.92576" lon="4.60556">
        <ele>433</ele>
        <time>2021-10-25T17:18:37+02:00</time>
      </trkpt>
      <trkpt lat="45.92571" lon="4.60561">
        <ele>432</ele>
        <time>2021-10-25T17:18:42+02:00</time>
      </trkpt>
      <trkpt lat="45.92554" lon="4.60587">
        <ele>430</ele>
        <time>2021-10-25T17:18:47+02:00</time>
      </trkpt>
      <trkpt lat="45.92545" lon="4.60615">
        <ele>427</ele>
        <time>2021-10-25T17:18:52+02:00</time>
      </trkpt>
      <trkpt lat="45.9254" lon="4.60625">
        <ele>426</ele>
        <time>2021-10-25T17:18:57+02:00</time>
      </trkpt>
      <trkpt lat="45.92533" lon="4.60635">
        <ele>425</ele>
        <time>2021-10-25T17:19:02+02:00</time>
      </trkpt>
      <trkpt lat="45.9252" lon="4.60653">
        <ele>423</ele>
        <time>2021-10-25T17:19:07+02:00</time>
      </trkpt>
      <trkpt lat="45.92497" lon="4.60679">
        <ele>420</ele>
        <time>2021-10-25T17:19:12+02:00</time>
      </trkpt>
      <trkpt lat="45.92486" lon="4.60685">
        <ele>419</ele>
        <time>2021-10-25T17:19:17+02:00</time>
      </trkpt>
      <trkpt lat="45.92478" lon="4.60693">
        <ele>418</ele>
        <time>2021-10-25T17:19:22+02:00</time>
      </trkpt>
      <trkpt lat="45.92471" lon="4.60704">
        <ele>417</ele>
        <time>2021-10-25T17:19:27+02:00</time>
      </trkpt>
      <trkpt lat="45.92461" lon="4.60715">
        <ele>415</ele>
        <time>2021-10-25T17:19:32+02:00</time>
      </trkpt>
      <trkpt lat="45.92457" lon="4.60723">
        <ele>414</ele>
        <time>2021-10-25T17:19:37+02:00</time>
      </trkpt>
      <trkpt lat="45.92454" lon="4.6073">
        <ele>413</ele>
        <time>2021-10-25T17:19:42+02:00</time>
      </trkpt>
      <trkpt lat="45.92453" lon="4.60736">
        <ele>413</ele>
        <time>2021-10-25T17:19:47+02:00</time>
      </trkpt>
      <trkpt lat="45.92452" lon="4.60746">
        <ele>412</ele>
        <time>2021-10-25T17:19:52+02:00</time>
      </trkpt>
      <trkpt lat="45.92453" lon="4.60755">
        <ele>412</ele>
        <time>2021-10-25T17:19:57+02:00</time>
      </trkpt>
      <trkpt lat="45.92453" lon="4.60763">
        <ele>412</ele>
        <time>2021-10-25T17:20:02+02:00</time>
      </trkpt>
      <trkpt lat="45.9245" lon="4.60769">
        <ele>411</ele>
        <time>2021-10-25T17:20:07+02:00</time>
      </trkpt>
      <trkpt lat="45.92446" lon="4.60778">
        <ele>410</ele>
        <time>2021-10-25T17:20:12+02:00</time>
      </trkpt>
      <trkpt lat="45.92435" lon="4.60815">
        <ele>409</ele>
        <time>2021-10-25T17:20:17+02:00</time>
      </trkpt>
      <trkpt lat="45.92393" lon="4.60892">
        <ele>410</ele>
        <time>2021-10-25T17:20:22+02:00</time>
      </trkpt>
      <trkpt lat="45.92381" lon="4.60911">
        <ele>412</ele>
        <time>2021-10-25T17:20:27+02:00</time>
      </trkpt>
      <trkpt lat="45.92369" lon="4.609">
        <ele>411</ele>
        <time>2021-10-25T17:20:32+02:00</time>
      </trkpt>
      <trkpt lat="45.92355" lon="4.60881">
        <ele>411</ele>
        <time>2021-10-25T17:20:37+02:00</time>
      </trkpt>
      <trkpt lat="45.92333" lon="4.60853">
        <ele>410</ele>
        <time>2021-10-25T17:20:42+02:00</time>
      </trkpt>
      <trkpt lat="45.92316" lon="4.60834">
        <ele>410</ele>
        <time>2021-10-25T17:20:47+02:00</time>
      </trkpt>
      <trkpt lat="45.92301" lon="4.60817">
        <ele>409</ele>
        <time>2021-10-25T17:20:52+02:00</time>
      </trkpt>
      <trkpt lat="45.92291" lon="4.60808">
        <ele>409</ele>
        <time>2021-10-25T17:20:57+02:00</time>
      </trkpt>
      <trkpt lat="45.92287" lon="4.60804">
        <ele>409</ele>
        <time>2021-10-25T17:21:02+02:00</time>
      </trkpt>
      <trkpt lat="45.92211" lon="4.60752">
        <ele>410</ele>
        <time>2021-10-25T17:21:07+02:00</time>
      </trkpt>
      <trkpt lat="45.9219" lon="4.6074">
        <ele>409</ele>
        <time>2021-10-25T17:21:12+02:00</time>
      </trkpt>
      <trkpt lat="45.92161" lon="4.60738">
        <ele>410</ele>
        <time>2021-10-25T17:21:17+02:00</time>
      </trkpt>
      <trkpt lat="45.92144" lon="4.60735">
        <ele>411</ele>
        <time>2021-10-25T17:21:22+02:00</time>
      </trkpt>
      <trkpt lat="45.92127" lon="4.6073">
        <ele>411</ele>
        <time>2021-10-25T17:21:27+02:00</time>
      </trkpt>
      <trkpt lat="45.92088" lon="4.60718">
        <ele>413</ele>
        <time>2021-10-25T17:21:32+02:00</time>
      </trkpt>
      <trkpt lat="45.92085" lon="4.60717">
        <ele>413</ele>
        <time>2021-10-25T17:21:37+02:00</time>
      </trkpt>
      <trkpt lat="45.92056" lon="4.60709">
        <ele>412</ele>
        <time>2021-10-25T17:21:42+02:00</time>
      </trkpt>
      <trkpt lat="45.92011" lon="4.60699">
        <ele>412</ele>
        <time>2021-10-25T17:21:47+02:00</time>
      </trkpt>
      <trkpt lat="45.91981" lon="4.60691">
        <ele>411</ele>
        <time>2021-10-25T17:21:52+02:00</time>
      </trkpt>
      <trkpt lat="45.91939" lon="4.60682">
        <ele>408</ele>
        <time>2021-10-25T17:21:57+02:00</time>
      </trkpt>
      <trkpt lat="45.9193" lon="4.60681">
        <ele>408</ele>
        <time>2021-10-25T17:22:02+02:00</time>
      </trkpt>
      <trkpt lat="45.91919" lon="4.60682">
        <ele>407</ele>
        <time>2021-10-25T17:22:07+02:00</time>
      </trkpt>
      <trkpt lat="45.91912" lon="4.60683">
        <ele>407</ele>
        <time>2021-10-25T17:22:12+02:00</time>
      </trkpt>
      <trkpt lat="45.91908" lon="4.60684">
        <ele>407</ele>
        <time>2021-10-25T17:22:17+02:00</time>
      </trkpt>
      <trkpt lat="45.91892" lon="4.6069">
        <ele>407</ele>
        <time>2021-10-25T17:22:22+02:00</time>
      </trkpt>
      <trkpt lat="45.91867" lon="4.60703">
        <ele>406</ele>
        <time>2021-10-25T17:22:27+02:00</time>
      </trkpt>
      <trkpt lat="45.91829" lon="4.60726">
        <ele>405</ele>
        <time>2021-10-25T17:22:32+02:00</time>
      </trkpt>
      <trkpt lat="45.91825" lon="4.60735">
        <ele>405</ele>
        <time>2021-10-25T17:22:37+02:00</time>
      </trkpt>
      <trkpt lat="45.91818" lon="4.60738">
        <ele>405</ele>
        <time>2021-10-25T17:22:42+02:00</time>
      </trkpt>
      <trkpt lat="45.91802" lon="4.60739">
        <ele>404</ele>
        <time>2021-10-25T17:22:47+02:00</time>
      </trkpt>
      <trkpt lat="45.91791" lon="4.60742">
        <ele>403</ele>
        <time>2021-10-25T17:22:52+02:00</time>
      </trkpt>
      <trkpt lat="45.91787" lon="4.60746">
        <ele>403</ele>
        <time>2021-10-25T17:22:57+02:00</time>
      </trkpt>
      <trkpt lat="45.91784" lon="4.6075">
        <ele>403</ele>
        <time>2021-10-25T17:23:02+02:00</time>
      </trkpt>
      <trkpt lat="45.91787" lon="4.60747">
        <ele>403</ele>
        <time>2021-10-25T17:23:07+02:00</time>
      </trkpt>
      <trkpt lat="45.91784" lon="4.6075">
        <ele>403</ele>
        <time>2021-10-25T17:23:12+02:00</time>
      </trkpt>
      <trkpt lat="45.91783" lon="4.60755">
        <ele>403</ele>
        <time>2021-10-25T17:23:17+02:00</time>
      </trkpt>
      <trkpt lat="45.91782" lon="4.60764">
        <ele>403</ele>
        <time>2021-10-25T17:23:22+02:00</time>
      </trkpt>
      <trkpt lat="45.9178" lon="4.60779">
        <ele>403</ele>
        <time>2021-10-25T17:23:27+02:00</time>
      </trkpt>
      <trkpt lat="45.91778" lon="4.6079">
        <ele>403</ele>
        <time>2021-10-25T17:23:32+02:00</time>
      </trkpt>
      <trkpt lat="45.91752" lon="4.60805">
        <ele>401</ele>
        <time>2021-10-25T17:23:37+02:00</time>
      </trkpt>
      <trkpt lat="45.91735" lon="4.60825">
        <ele>400</ele>
        <time>2021-10-25T17:23:42+02:00</time>
      </trkpt>
      <trkpt lat="45.91722" lon="4.60842">
        <ele>400</ele>
        <time>2021-10-25T17:23:47+02:00</time>
      </trkpt>
      <trkpt lat="45.91707" lon="4.60867">
        <ele>399</ele>
        <time>2021-10-25T17:23:52+02:00</time>
      </trkpt>
      <trkpt lat="45.91698" lon="4.60885">
        <ele>399</ele>
        <time>2021-10-25T17:23:57+02:00</time>
      </trkpt>
      <trkpt lat="45.91692" lon="4.6091">
        <ele>398</ele>
        <time>2021-10-25T17:24:02+02:00</time>
      </trkpt>
      <trkpt lat="45.91695" lon="4.60934">
        <ele>397</ele>
        <time>2021-10-25T17:24:07+02:00</time>
      </trkpt>
      <trkpt lat="45.91707" lon="4.60969">
        <ele>395</ele>
        <time>2021-10-25T17:24:12+02:00</time>
      </trkpt>
      <trkpt lat="45.91731" lon="4.61038">
        <ele>392</ele>
        <time>2021-10-25T17:24:17+02:00</time>
      </trkpt>
      <trkpt lat="45.91735" lon="4.61055">
        <ele>391</ele>
        <time>2021-10-25T17:24:22+02:00</time>
      </trkpt>
      <trkpt lat="45.91737" lon="4.61065">
        <ele>391</ele>
        <time>2021-10-25T17:24:27+02:00</time>
      </trkpt>
      <trkpt lat="45.91738" lon="4.61081">
        <ele>390</ele>
        <time>2021-10-25T17:24:32+02:00</time>
      </trkpt>
      <trkpt lat="45.91737" lon="4.61108">
        <ele>389</ele>
        <time>2021-10-25T17:24:37+02:00</time>
      </trkpt>
      <trkpt lat="45.91733" lon="4.61133">
        <ele>388</ele>
        <time>2021-10-25T17:24:42+02:00</time>
      </trkpt>
      <trkpt lat="45.91728" lon="4.6116">
        <ele>386</ele>
        <time>2021-10-25T17:24:47+02:00</time>
      </trkpt>
      <trkpt lat="45.91722" lon="4.61179">
        <ele>386</ele>
        <time>2021-10-25T17:24:52+02:00</time>
      </trkpt>
      <trkpt lat="45.91718" lon="4.61197">
        <ele>385</ele>
        <time>2021-10-25T17:24:57+02:00</time>
      </trkpt>
      <trkpt lat="45.91715" lon="4.6122">
        <ele>385</ele>
        <time>2021-10-25T17:25:02+02:00</time>
      </trkpt>
      <trkpt lat="45.91709" lon="4.61213">
        <ele>385</ele>
        <time>2021-10-25T17:25:07+02:00</time>
      </trkpt>
      <trkpt lat="45.91671" lon="4.61184">
        <ele>382</ele>
        <time>2021-10-25T17:25:12+02:00</time>
      </trkpt>
      <trkpt lat="45.91657" lon="4.61172">
        <ele>380</ele>
        <time>2021-10-25T17:25:17+02:00</time>
      </trkpt>
      <trkpt lat="45.91645" lon="4.61175">
        <ele>379</ele>
        <time>2021-10-25T17:25:22+02:00</time>
      </trkpt>
      <trkpt lat="45.91624" lon="4.61184">
        <ele>376</ele>
        <time>2021-10-25T17:25:27+02:00</time>
      </trkpt>
      <trkpt lat="45.91604" lon="4.61192">
        <ele>373</ele>
        <time>2021-10-25T17:25:32+02:00</time>
      </trkpt>
      <trkpt lat="45.91552" lon="4.61209">
        <ele>368</ele>
        <time>2021-10-25T17:25:37+02:00</time>
      </trkpt>
      <trkpt lat="45.91527" lon="4.61218">
        <ele>366</ele>
        <time>2021-10-25T17:25:42+02:00</time>
      </trkpt>
      <trkpt lat="45.91487" lon="4.61233">
        <ele>362</ele>
        <time>2021-10-25T17:25:47+02:00</time>
      </trkpt>
      <trkpt lat="45.91459" lon="4.61245">
        <ele>360</ele>
        <time>2021-10-25T17:25:52+02:00</time>
      </trkpt>
      <trkpt lat="45.91491" lon="4.61309">
        <ele>356</ele>
        <time>2021-10-25T17:25:57+02:00</time>
      </trkpt>
      <trkpt lat="45.91502" lon="4.61351">
        <ele>353</ele>
        <time>2021-10-25T17:26:02+02:00</time>
      </trkpt>
      <trkpt lat="45.91506" lon="4.61376">
        <ele>351</ele>
        <time>2021-10-25T17:26:07+02:00</time>
      </trkpt>
      <trkpt lat="45.91506" lon="4.61429">
        <ele>348</ele>
        <time>2021-10-25T17:26:12+02:00</time>
      </trkpt>
      <trkpt lat="45.91514" lon="4.61476">
        <ele>347</ele>
        <time>2021-10-25T17:26:17+02:00</time>
      </trkpt>
      <trkpt lat="45.91511" lon="4.61566">
        <ele>349</ele>
        <time>2021-10-25T17:26:22+02:00</time>
      </trkpt>
      <trkpt lat="45.91515" lon="4.61599">
        <ele>352</ele>
        <time>2021-10-25T17:26:27+02:00</time>
      </trkpt>
      <trkpt lat="45.91524" lon="4.6163">
        <ele>356</ele>
        <time>2021-10-25T17:26:32+02:00</time>
      </trkpt>
      <trkpt lat="45.91539" lon="4.61645">
        <ele>359</ele>
        <time>2021-10-25T17:26:37+02:00</time>
      </trkpt>
      <trkpt lat="45.91535" lon="4.61656">
        <ele>360</ele>
        <time>2021-10-25T17:26:42+02:00</time>
      </trkpt>
      <trkpt lat="45.91528" lon="4.61657">
        <ele>359</ele>
        <time>2021-10-25T17:26:47+02:00</time>
      </trkpt>
      <trkpt lat="45.91504" lon="4.61668">
        <ele>358</ele>
        <time>2021-10-25T17:26:52+02:00</time>
      </trkpt>
      <trkpt lat="45.91492" lon="4.61669">
        <ele>357</ele>
        <time>2021-10-25T17:26:57+02:00</time>
      </trkpt>
      <trkpt lat="45.91486" lon="4.61671">
        <ele>357</ele>
        <time>2021-10-25T17:27:02+02:00</time>
      </trkpt>
      <trkpt lat="45.91483" lon="4.61676">
        <ele>357</ele>
        <time>2021-10-25T17:27:07+02:00</time>
      </trkpt>
      <trkpt lat="45.91483" lon="4.61681">
        <ele>357</ele>
        <time>2021-10-25T17:27:12+02:00</time>
      </trkpt>
      <trkpt lat="45.91482" lon="4.61689">
        <ele>357</ele>
        <time>2021-10-25T17:27:17+02:00</time>
      </trkpt>
      <trkpt lat="45.9148" lon="4.61695">
        <ele>357</ele>
        <time>2021-10-25T17:27:22+02:00</time>
      </trkpt>
      <trkpt lat="45.91469" lon="4.61708">
        <ele>357</ele>
        <time>2021-10-25T17:27:27+02:00</time>
      </trkpt>
      <trkpt lat="45.91465" lon="4.61709">
        <ele>356</ele>
        <time>2021-10-25T17:27:32+02:00</time>
      </trkpt>
      <trkpt lat="45.91459" lon="4.61715">
        <ele>356</ele>
        <time>2021-10-25T17:27:37+02:00</time>
      </trkpt>
      <trkpt lat="45.91435" lon="4.61724">
        <ele>355</ele>
        <time>2021-10-25T17:27:42+02:00</time>
      </trkpt>
      <trkpt lat="45.91399" lon="4.6175">
        <ele>354</ele>
        <time>2021-10-25T17:27:47+02:00</time>
      </trkpt>
      <trkpt lat="45.91416" lon="4.61798">
        <ele>357</ele>
        <time>2021-10-25T17:27:52+02:00</time>
      </trkpt>
      <trkpt lat="45.91426" lon="4.61827">
        <ele>358</ele>
        <time>2021-10-25T17:27:57+02:00</time>
      </trkpt>
      <trkpt lat="45.91438" lon="4.61849">
        <ele>357</ele>
        <time>2021-10-25T17:28:02+02:00</time>
      </trkpt>
      <trkpt lat="45.91424" lon="4.61882">
        <ele>355</ele>
        <time>2021-10-25T17:28:07+02:00</time>
      </trkpt>
      <trkpt lat="45.91422" lon="4.61888">
        <ele>354</ele>
        <time>2021-10-25T17:28:12+02:00</time>
      </trkpt>
      <trkpt lat="45.91412" lon="4.61922">
        <ele>351</ele>
        <time>2021-10-25T17:28:17+02:00</time>
      </trkpt>
      <trkpt lat="45.91404" lon="4.61958">
        <ele>347</ele>
        <time>2021-10-25T17:28:22+02:00</time>
      </trkpt>
      <trkpt lat="45.91397" lon="4.61986">
        <ele>345</ele>
        <time>2021-10-25T17:28:27+02:00</time>
      </trkpt>
      <trkpt lat="45.91395" lon="4.62007">
        <ele>343</ele>
        <time>2021-10-25T17:28:32+02:00</time>
      </trkpt>
      <trkpt lat="45.91394" lon="4.62024">
        <ele>342</ele>
        <time>2021-10-25T17:28:37+02:00</time>
      </trkpt>
      <trkpt lat="45.9139" lon="4.62044">
        <ele>341</ele>
        <time>2021-10-25T17:28:42+02:00</time>
      </trkpt>
      <trkpt lat="45.91388" lon="4.62068">
        <ele>340</ele>
        <time>2021-10-25T17:28:47+02:00</time>
      </trkpt>
      <trkpt lat="45.91385" lon="4.62107">
        <ele>338</ele>
        <time>2021-10-25T17:28:52+02:00</time>
      </trkpt>
      <trkpt lat="45.91384" lon="4.62134">
        <ele>338</ele>
        <time>2021-10-25T17:28:57+02:00</time>
      </trkpt>
      <trkpt lat="45.91377" lon="4.62226">
        <ele>336</ele>
        <time>2021-10-25T17:29:02+02:00</time>
      </trkpt>
      <trkpt lat="45.91374" lon="4.62255">
        <ele>336</ele>
        <time>2021-10-25T17:29:07+02:00</time>
      </trkpt>
      <trkpt lat="45.91365" lon="4.62309">
        <ele>336</ele>
        <time>2021-10-25T17:29:12+02:00</time>
      </trkpt>
      <trkpt lat="45.91361" lon="4.62333">
        <ele>336</ele>
        <time>2021-10-25T17:29:17+02:00</time>
      </trkpt>
      <trkpt lat="45.91359" lon="4.62351">
        <ele>335</ele>
        <time>2021-10-25T17:29:22+02:00</time>
      </trkpt>
      <trkpt lat="45.91359" lon="4.62369">
        <ele>335</ele>
        <time>2021-10-25T17:29:27+02:00</time>
      </trkpt>
      <trkpt lat="45.9136" lon="4.62379">
        <ele>335</ele>
        <time>2021-10-25T17:29:32+02:00</time>
      </trkpt>
      <trkpt lat="45.9136" lon="4.62395">
        <ele>335</ele>
        <time>2021-10-25T17:29:37+02:00</time>
      </trkpt>
      <trkpt lat="45.91356" lon="4.62416">
        <ele>335</ele>
        <time>2021-10-25T17:29:42+02:00</time>
      </trkpt>
      <trkpt lat="45.91351" lon="4.62436">
        <ele>334</ele>
        <time>2021-10-25T17:29:47+02:00</time>
      </trkpt>
      <trkpt lat="45.91337" lon="4.62471">
        <ele>333</ele>
        <time>2021-10-25T17:29:52+02:00</time>
      </trkpt>
      <trkpt lat="45.91321" lon="4.62508">
        <ele>332</ele>
        <time>2021-10-25T17:29:57+02:00</time>
      </trkpt>
      <trkpt lat="45.91313" lon="4.62527">
        <ele>331</ele>
        <time>2021-10-25T17:30:02+02:00</time>
      </trkpt>
      <trkpt lat="45.91308" lon="4.62543">
        <ele>330</ele>
        <time>2021-10-25T17:30:07+02:00</time>
      </trkpt>
      <trkpt lat="45.91304" lon="4.62551">
        <ele>330</ele>
        <time>2021-10-25T17:30:12+02:00</time>
      </trkpt>
      <trkpt lat="45.91299" lon="4.62584">
        <ele>328</ele>
        <time>2021-10-25T17:30:17+02:00</time>
      </trkpt>
      <trkpt lat="45.91297" lon="4.62604">
        <ele>328</ele>
        <time>2021-10-25T17:30:22+02:00</time>
      </trkpt>
      <trkpt lat="45.91296" lon="4.62616">
        <ele>327</ele>
        <time>2021-10-25T17:30:27+02:00</time>
      </trkpt>
      <trkpt lat="45.91296" lon="4.6267">
        <ele>326</ele>
        <time>2021-10-25T17:30:32+02:00</time>
      </trkpt>
      <trkpt lat="45.91295" lon="4.62702">
        <ele>326</ele>
        <time>2021-10-25T17:30:37+02:00</time>
      </trkpt>
      <trkpt lat="45.91294" lon="4.62723">
        <ele>325</ele>
        <time>2021-10-25T17:30:42+02:00</time>
      </trkpt>
      <trkpt lat="45.91287" lon="4.62773">
        <ele>325</ele>
        <time>2021-10-25T17:30:47+02:00</time>
      </trkpt>
      <trkpt lat="45.91282" lon="4.62921">
        <ele>320</ele>
        <time>2021-10-25T17:30:52+02:00</time>
      </trkpt>
      <trkpt lat="45.91291" lon="4.63009">
        <ele>318</ele>
        <time>2021-10-25T17:30:57+02:00</time>
      </trkpt>
      <trkpt lat="45.91307" lon="4.63097">
        <ele>317</ele>
        <time>2021-10-25T17:31:02+02:00</time>
      </trkpt>
      <trkpt lat="45.91308" lon="4.63132">
        <ele>316</ele>
        <time>2021-10-25T17:31:07+02:00</time>
      </trkpt>
      <trkpt lat="45.91305" lon="4.63186">
        <ele>314</ele>
        <time>2021-10-25T17:31:12+02:00</time>
      </trkpt>
      <trkpt lat="45.913" lon="4.63234">
        <ele>314</ele>
        <time>2021-10-25T17:31:17+02:00</time>
      </trkpt>
      <trkpt lat="45.91295" lon="4.63281">
        <ele>313</ele>
        <time>2021-10-25T17:31:22+02:00</time>
      </trkpt>
      <trkpt lat="45.91285" lon="4.63341">
        <ele>311</ele>
        <time>2021-10-25T17:31:27+02:00</time>
      </trkpt>
      <trkpt lat="45.91292" lon="4.63381">
        <ele>310</ele>
        <time>2021-10-25T17:31:32+02:00</time>
      </trkpt>
      <trkpt lat="45.91301" lon="4.63407">
        <ele>309</ele>
        <time>2021-10-25T17:31:37+02:00</time>
      </trkpt>
      <trkpt lat="45.91286" lon="4.6344">
        <ele>308</ele>
        <time>2021-10-25T17:31:42+02:00</time>
      </trkpt>
      <trkpt lat="45.91275" lon="4.63468">
        <ele>309</ele>
        <time>2021-10-25T17:31:47+02:00</time>
      </trkpt>
      <trkpt lat="45.91266" lon="4.63499">
        <ele>310</ele>
        <time>2021-10-25T17:31:52+02:00</time>
      </trkpt>
      <trkpt lat="45.91262" lon="4.63521">
        <ele>310</ele>
        <time>2021-10-25T17:31:57+02:00</time>
      </trkpt>
      <trkpt lat="45.91258" lon="4.63551">
        <ele>312</ele>
        <time>2021-10-25T17:32:02+02:00</time>
      </trkpt>
      <trkpt lat="45.91257" lon="4.63568">
        <ele>312</ele>
        <time>2021-10-25T17:32:07+02:00</time>
      </trkpt>
      <trkpt lat="45.91258" lon="4.63583">
        <ele>313</ele>
        <time>2021-10-25T17:32:12+02:00</time>
      </trkpt>
      <trkpt lat="45.91264" lon="4.63608">
        <ele>313</ele>
        <time>2021-10-25T17:32:17+02:00</time>
      </trkpt>
      <trkpt lat="45.9125" lon="4.63621">
        <ele>313</ele>
        <time>2021-10-25T17:32:22+02:00</time>
      </trkpt>
      <trkpt lat="45.91234" lon="4.63635">
        <ele>313</ele>
        <time>2021-10-25T17:32:27+02:00</time>
      </trkpt>
      <trkpt lat="45.91219" lon="4.63656">
        <ele>312</ele>
        <time>2021-10-25T17:32:32+02:00</time>
      </trkpt>
      <trkpt lat="45.91215" lon="4.6367">
        <ele>313</ele>
        <time>2021-10-25T17:32:37+02:00</time>
      </trkpt>
      <trkpt lat="45.91212" lon="4.63699">
        <ele>312</ele>
        <time>2021-10-25T17:32:42+02:00</time>
      </trkpt>
      <trkpt lat="45.91209" lon="4.63714">
        <ele>312</ele>
        <time>2021-10-25T17:32:47+02:00</time>
      </trkpt>
      <trkpt lat="45.91203" lon="4.63734">
        <ele>312</ele>
        <time>2021-10-25T17:32:52+02:00</time>
      </trkpt>
      <trkpt lat="45.91196" lon="4.63751">
        <ele>312</ele>
        <time>2021-10-25T17:32:57+02:00</time>
      </trkpt>
      <trkpt lat="45.91158" lon="4.63823">
        <ele>311</ele>
        <time>2021-10-25T17:33:02+02:00</time>
      </trkpt>
      <trkpt lat="45.91145" lon="4.6385">
        <ele>311</ele>
        <time>2021-10-25T17:33:07+02:00</time>
      </trkpt>
      <trkpt lat="45.91134" lon="4.63884">
        <ele>312</ele>
        <time>2021-10-25T17:33:12+02:00</time>
      </trkpt>
      <trkpt lat="45.91126" lon="4.63938">
        <ele>311</ele>
        <time>2021-10-25T17:33:17+02:00</time>
      </trkpt>
      <trkpt lat="45.91118" lon="4.63998">
        <ele>309</ele>
        <time>2021-10-25T17:33:22+02:00</time>
      </trkpt>
      <trkpt lat="45.91114" lon="4.64013">
        <ele>309</ele>
        <time>2021-10-25T17:33:27+02:00</time>
      </trkpt>
      <trkpt lat="45.91106" lon="4.64046">
        <ele>308</ele>
        <time>2021-10-25T17:33:32+02:00</time>
      </trkpt>
      <trkpt lat="45.91096" lon="4.64088">
        <ele>307</ele>
        <time>2021-10-25T17:33:37+02:00</time>
      </trkpt>
      <trkpt lat="45.91092" lon="4.64104">
        <ele>306</ele>
        <time>2021-10-25T17:33:42+02:00</time>
      </trkpt>
      <trkpt lat="45.91086" lon="4.64127">
        <ele>305</ele>
        <time>2021-10-25T17:33:47+02:00</time>
      </trkpt>
      <trkpt lat="45.91081" lon="4.64144">
        <ele>305</ele>
        <time>2021-10-25T17:33:52+02:00</time>
      </trkpt>
      <trkpt lat="45.91069" lon="4.64162">
        <ele>304</ele>
        <time>2021-10-25T17:33:57+02:00</time>
      </trkpt>
      <trkpt lat="45.91043" lon="4.64201">
        <ele>303</ele>
        <time>2021-10-25T17:34:02+02:00</time>
      </trkpt>
      <trkpt lat="45.91022" lon="4.64227">
        <ele>302</ele>
        <time>2021-10-25T17:34:07+02:00</time>
      </trkpt>
      <trkpt lat="45.9101" lon="4.64242">
        <ele>301</ele>
        <time>2021-10-25T17:34:12+02:00</time>
      </trkpt>
      <trkpt lat="45.90995" lon="4.64267">
        <ele>300</ele>
        <time>2021-10-25T17:34:17+02:00</time>
      </trkpt>
      <trkpt lat="45.90978" lon="4.64307">
        <ele>298</ele>
        <time>2021-10-25T17:34:22+02:00</time>
      </trkpt>
      <trkpt lat="45.90972" lon="4.64319">
        <ele>298</ele>
        <time>2021-10-25T17:34:27+02:00</time>
      </trkpt>
      <trkpt lat="45.90964" lon="4.64326">
        <ele>297</ele>
        <time>2021-10-25T17:34:32+02:00</time>
      </trkpt>
      <trkpt lat="45.90953" lon="4.64327">
        <ele>297</ele>
        <time>2021-10-25T17:34:37+02:00</time>
      </trkpt>
      <trkpt lat="45.90924" lon="4.64327">
        <ele>297</ele>
        <time>2021-10-25T17:34:42+02:00</time>
      </trkpt>
      <trkpt lat="45.90898" lon="4.64321">
        <ele>298</ele>
        <time>2021-10-25T17:34:47+02:00</time>
      </trkpt>
      <trkpt lat="45.90835" lon="4.64313">
        <ele>299</ele>
        <time>2021-10-25T17:34:52+02:00</time>
      </trkpt>
      <trkpt lat="45.90757" lon="4.64299">
        <ele>300</ele>
        <time>2021-10-25T17:34:57+02:00</time>
      </trkpt>
      <trkpt lat="45.90727" lon="4.64282">
        <ele>302</ele>
        <time>2021-10-25T17:35:02+02:00</time>
      </trkpt>
      <trkpt lat="45.90713" lon="4.64276">
        <ele>303</ele>
        <time>2021-10-25T17:35:07+02:00</time>
      </trkpt>
      <trkpt lat="45.90687" lon="4.64263">
        <ele>304</ele>
        <time>2021-10-25T17:35:12+02:00</time>
      </trkpt>
      <trkpt lat="45.90654" lon="4.64258">
        <ele>304</ele>
        <time>2021-10-25T17:35:17+02:00</time>
      </trkpt>
      <trkpt lat="45.90679" lon="4.64295">
        <ele>303</ele>
        <time>2021-10-25T17:35:22+02:00</time>
      </trkpt>
      <trkpt lat="45.9069" lon="4.64324">
        <ele>301</ele>
        <time>2021-10-25T17:35:27+02:00</time>
      </trkpt>
      <trkpt lat="45.90686" lon="4.64405">
        <ele>294</ele>
        <time>2021-10-25T17:35:32+02:00</time>
      </trkpt>
      <trkpt lat="45.90692" lon="4.64425">
        <ele>293</ele>
        <time>2021-10-25T17:35:37+02:00</time>
      </trkpt>
      <trkpt lat="45.90695" lon="4.64447">
        <ele>292</ele>
        <time>2021-10-25T17:35:42+02:00</time>
      </trkpt>
      <trkpt lat="45.90691" lon="4.64485">
        <ele>290</ele>
        <time>2021-10-25T17:35:47+02:00</time>
      </trkpt>
      <trkpt lat="45.90664" lon="4.64545">
        <ele>287</ele>
        <time>2021-10-25T17:35:52+02:00</time>
      </trkpt>
      <trkpt lat="45.90659" lon="4.6457">
        <ele>286</ele>
        <time>2021-10-25T17:35:57+02:00</time>
      </trkpt>
      <trkpt lat="45.90651" lon="4.64592">
        <ele>284</ele>
        <time>2021-10-25T17:36:02+02:00</time>
      </trkpt>
      <trkpt lat="45.9063" lon="4.64641">
        <ele>281</ele>
        <time>2021-10-25T17:36:07+02:00</time>
      </trkpt>
      <trkpt lat="45.90621" lon="4.64656">
        <ele>281</ele>
        <time>2021-10-25T17:36:12+02:00</time>
      </trkpt>
      <trkpt lat="45.906" lon="4.64683">
        <ele>278</ele>
        <time>2021-10-25T17:36:17+02:00</time>
      </trkpt>
      <trkpt lat="45.90546" lon="4.64703">
        <ele>273</ele>
        <time>2021-10-25T17:36:22+02:00</time>
      </trkpt>
      <trkpt lat="45.90522" lon="4.64707">
        <ele>271</ele>
        <time>2021-10-25T17:36:27+02:00</time>
      </trkpt>
      <trkpt lat="45.90484" lon="4.64708">
        <ele>267</ele>
        <time>2021-10-25T17:36:32+02:00</time>
      </trkpt>
      <trkpt lat="45.90463" lon="4.64722">
        <ele>264</ele>
        <time>2021-10-25T17:36:37+02:00</time>
      </trkpt>
      <trkpt lat="45.90451" lon="4.64728">
        <ele>263</ele>
        <time>2021-10-25T17:36:42+02:00</time>
      </trkpt>
      <trkpt lat="45.90427" lon="4.64739">
        <ele>261</ele>
        <time>2021-10-25T17:36:47+02:00</time>
      </trkpt>
      <trkpt lat="45.90407" lon="4.64752">
        <ele>259</ele>
        <time>2021-10-25T17:36:52+02:00</time>
      </trkpt>
      <trkpt lat="45.90394" lon="4.64765">
        <ele>258</ele>
        <time>2021-10-25T17:36:57+02:00</time>
      </trkpt>
      <trkpt lat="45.90387" lon="4.64842">
        <ele>256</ele>
        <time>2021-10-25T17:37:02+02:00</time>
      </trkpt>
      <trkpt lat="45.90383" lon="4.64855">
        <ele>257</ele>
        <time>2021-10-25T17:37:07+02:00</time>
      </trkpt>
      <trkpt lat="45.90381" lon="4.64864">
        <ele>257</ele>
        <time>2021-10-25T17:37:12+02:00</time>
      </trkpt>
      <trkpt lat="45.90377" lon="4.64874">
        <ele>258</ele>
        <time>2021-10-25T17:37:17+02:00</time>
      </trkpt>
      <trkpt lat="45.90375" lon="4.64887">
        <ele>259</ele>
        <time>2021-10-25T17:37:22+02:00</time>
      </trkpt>
      <trkpt lat="45.90375" lon="4.64901">
        <ele>260</ele>
        <time>2021-10-25T17:37:27+02:00</time>
      </trkpt>
      <trkpt lat="45.90374" lon="4.64914">
        <ele>261</ele>
        <time>2021-10-25T17:37:32+02:00</time>
      </trkpt>
      <trkpt lat="45.90372" lon="4.64931">
        <ele>263</ele>
        <time>2021-10-25T17:37:37+02:00</time>
      </trkpt>
      <trkpt lat="45.90369" lon="4.64944">
        <ele>264</ele>
        <time>2021-10-25T17:37:42+02:00</time>
      </trkpt>
      <trkpt lat="45.90359" lon="4.64971">
        <ele>267</ele>
        <time>2021-10-25T17:37:47+02:00</time>
      </trkpt>
      <trkpt lat="45.90341" lon="4.65012">
        <ele>272</ele>
        <time>2021-10-25T17:37:52+02:00</time>
      </trkpt>
      <trkpt lat="45.90319" lon="4.65029">
        <ele>274</ele>
        <time>2021-10-25T17:37:57+02:00</time>
      </trkpt>
      <trkpt lat="45.90272" lon="4.65029">
        <ele>277</ele>
        <time>2021-10-25T17:38:02+02:00</time>
      </trkpt>
      <trkpt lat="45.90271" lon="4.65015">
        <ele>275</ele>
        <time>2021-10-25T17:38:07+02:00</time>
      </trkpt>
      <trkpt lat="45.90269" lon="4.6497">
        <ele>270</ele>
        <time>2021-10-25T17:38:12+02:00</time>
      </trkpt>
      <trkpt lat="45.90268" lon="4.64963">
        <ele>269</ele>
        <time>2021-10-25T17:38:17+02:00</time>
      </trkpt>
      <trkpt lat="45.90252" lon="4.64929">
        <ele>265</ele>
        <time>2021-10-25T17:38:22+02:00</time>
      </trkpt>
      <trkpt lat="45.90236" lon="4.64904">
        <ele>261</ele>
        <time>2021-10-25T17:38:27+02:00</time>
      </trkpt>
      <trkpt lat="45.90223" lon="4.6487">
        <ele>257</ele>
        <time>2021-10-25T17:38:32+02:00</time>
      </trkpt>
      <trkpt lat="45.90216" lon="4.6485">
        <ele>254</ele>
        <time>2021-10-25T17:38:37+02:00</time>
      </trkpt>
      <trkpt lat="45.90204" lon="4.64836">
        <ele>252</ele>
        <time>2021-10-25T17:38:42+02:00</time>
      </trkpt>
      <trkpt lat="45.90191" lon="4.64819">
        <ele>251</ele>
        <time>2021-10-25T17:38:47+02:00</time>
      </trkpt>
      <trkpt lat="45.90178" lon="4.64831">
        <ele>252</ele>
        <time>2021-10-25T17:38:52+02:00</time>
      </trkpt>
      <trkpt lat="45.90169" lon="4.6486">
        <ele>256</ele>
        <time>2021-10-25T17:38:57+02:00</time>
      </trkpt>
      <trkpt lat="45.90153" lon="4.64886">
        <ele>258</ele>
        <time>2021-10-25T17:39:02+02:00</time>
      </trkpt>
      <trkpt lat="45.90143" lon="4.64894">
        <ele>258</ele>
        <time>2021-10-25T17:39:07+02:00</time>
      </trkpt>
      <trkpt lat="45.90136" lon="4.649">
        <ele>258</ele>
        <time>2021-10-25T17:39:12+02:00</time>
      </trkpt>
      <trkpt lat="45.90122" lon="4.64904">
        <ele>258</ele>
        <time>2021-10-25T17:39:17+02:00</time>
      </trkpt>
      <trkpt lat="45.90115" lon="4.64905">
        <ele>257</ele>
        <time>2021-10-25T17:39:22+02:00</time>
      </trkpt>
      <trkpt lat="45.90108" lon="4.64906">
        <ele>256</ele>
        <time>2021-10-25T17:39:27+02:00</time>
      </trkpt>
      <trkpt lat="45.90087" lon="4.64904">
        <ele>254</ele>
        <time>2021-10-25T17:39:32+02:00</time>
      </trkpt>
      <trkpt lat="45.90061" lon="4.64914">
        <ele>255</ele>
        <time>2021-10-25T17:39:37+02:00</time>
      </trkpt>
      <trkpt lat="45.9002" lon="4.64936">
        <ele>259</ele>
        <time>2021-10-25T17:39:42+02:00</time>
      </trkpt>
      <trkpt lat="45.90008" lon="4.64941">
        <ele>260</ele>
        <time>2021-10-25T17:39:47+02:00</time>
      </trkpt>
      <trkpt lat="45.89997" lon="4.64947">
        <ele>261</ele>
        <time>2021-10-25T17:39:52+02:00</time>
      </trkpt>
      <trkpt lat="45.89947" lon="4.64974">
        <ele>267</ele>
        <time>2021-10-25T17:39:57+02:00</time>
      </trkpt>
      <trkpt lat="45.89908" lon="4.64982">
        <ele>272</ele>
        <time>2021-10-25T17:40:02+02:00</time>
      </trkpt>
      <trkpt lat="45.89908" lon="4.64982">
        <ele>272</ele>
        <time>2021-10-25T17:40:07+02:00</time>
      </trkpt>
      <trkpt lat="45.89888" lon="4.64981">
        <ele>273</ele>
        <time>2021-10-25T17:40:12+02:00</time>
      </trkpt>
      <trkpt lat="45.89866" lon="4.6498">
        <ele>274</ele>
        <time>2021-10-25T17:40:17+02:00</time>
      </trkpt>
      <trkpt lat="45.89832" lon="4.64976">
        <ele>276</ele>
        <time>2021-10-25T17:40:22+02:00</time>
      </trkpt>
      <trkpt lat="45.89813" lon="4.64973">
        <ele>277</ele>
        <time>2021-10-25T17:40:27+02:00</time>
      </trkpt>
      <trkpt lat="45.89796" lon="4.64971">
        <ele>278</ele>
        <time>2021-10-25T17:40:32+02:00</time>
      </trkpt>
      <trkpt lat="45.89777" lon="4.64973">
        <ele>280</ele>
        <time>2021-10-25T17:40:37+02:00</time>
      </trkpt>
      <trkpt lat="45.8976" lon="4.64978">
        <ele>282</ele>
        <time>2021-10-25T17:40:42+02:00</time>
      </trkpt>
      <trkpt lat="45.89744" lon="4.64985">
        <ele>285</ele>
        <time>2021-10-25T17:40:47+02:00</time>
      </trkpt>
      <trkpt lat="45.89731" lon="4.64993">
        <ele>287</ele>
        <time>2021-10-25T17:40:52+02:00</time>
      </trkpt>
      <trkpt lat="45.89718" lon="4.65002">
        <ele>289</ele>
        <time>2021-10-25T17:40:57+02:00</time>
      </trkpt>
      <trkpt lat="45.89703" lon="4.65016">
        <ele>291</ele>
        <time>2021-10-25T17:41:02+02:00</time>
      </trkpt>
      <trkpt lat="45.89683" lon="4.6503">
        <ele>293</ele>
        <time>2021-10-25T17:41:07+02:00</time>
      </trkpt>
      <trkpt lat="45.89666" lon="4.65039">
        <ele>295</ele>
        <time>2021-10-25T17:41:12+02:00</time>
      </trkpt>
      <trkpt lat="45.89646" lon="4.65044">
        <ele>296</ele>
        <time>2021-10-25T17:41:17+02:00</time>
      </trkpt>
      <trkpt lat="45.89627" lon="4.65051">
        <ele>297</ele>
        <time>2021-10-25T17:41:22+02:00</time>
      </trkpt>
      <trkpt lat="45.89606" lon="4.6506">
        <ele>299</ele>
        <time>2021-10-25T17:41:27+02:00</time>
      </trkpt>
      <trkpt lat="45.89627" lon="4.65051">
        <ele>297</ele>
        <time>2021-10-25T17:41:32+02:00</time>
      </trkpt>
      <trkpt lat="45.89598" lon="4.65064">
        <ele>299</ele>
        <time>2021-10-25T17:41:37+02:00</time>
      </trkpt>
      <trkpt lat="45.89561" lon="4.65084">
        <ele>303</ele>
        <time>2021-10-25T17:41:42+02:00</time>
      </trkpt>
      <trkpt lat="45.89454" lon="4.65127">
        <ele>313</ele>
        <time>2021-10-25T17:41:47+02:00</time>
      </trkpt>
      <trkpt lat="45.89444" lon="4.6513">
        <ele>314</ele>
        <time>2021-10-25T17:41:52+02:00</time>
      </trkpt>
      <trkpt lat="45.89429" lon="4.65135">
        <ele>315</ele>
        <time>2021-10-25T17:41:57+02:00</time>
      </trkpt>
      <trkpt lat="45.89393" lon="4.65142">
        <ele>317</ele>
        <time>2021-10-25T17:42:02+02:00</time>
      </trkpt>
      <trkpt lat="45.89367" lon="4.65148">
        <ele>319</ele>
        <time>2021-10-25T17:42:07+02:00</time>
      </trkpt>
      <trkpt lat="45.89352" lon="4.65151">
        <ele>321</ele>
        <time>2021-10-25T17:42:12+02:00</time>
      </trkpt>
      <trkpt lat="45.89312" lon="4.65156">
        <ele>324</ele>
        <time>2021-10-25T17:42:17+02:00</time>
      </trkpt>
      <trkpt lat="45.89303" lon="4.65157">
        <ele>325</ele>
        <time>2021-10-25T17:42:22+02:00</time>
      </trkpt>
      <trkpt lat="45.89292" lon="4.6516">
        <ele>327</ele>
        <time>2021-10-25T17:42:27+02:00</time>
      </trkpt>
      <trkpt lat="45.89268" lon="4.65168">
        <ele>330</ele>
        <time>2021-10-25T17:42:32+02:00</time>
      </trkpt>
      <trkpt lat="45.89262" lon="4.65171">
        <ele>330</ele>
        <time>2021-10-25T17:42:37+02:00</time>
      </trkpt>
      <trkpt lat="45.89247" lon="4.65179">
        <ele>332</ele>
        <time>2021-10-25T17:42:42+02:00</time>
      </trkpt>
      <trkpt lat="45.89226" lon="4.65194">
        <ele>331</ele>
        <time>2021-10-25T17:42:47+02:00</time>
      </trkpt>
      <trkpt lat="45.89208" lon="4.65208">
        <ele>331</ele>
        <time>2021-10-25T17:42:52+02:00</time>
      </trkpt>
      <trkpt lat="45.892" lon="4.65217">
        <ele>331</ele>
        <time>2021-10-25T17:42:57+02:00</time>
      </trkpt>
      <trkpt lat="45.89183" lon="4.65241">
        <ele>332</ele>
        <time>2021-10-25T17:43:02+02:00</time>
      </trkpt>
      <trkpt lat="45.89176" lon="4.65257">
        <ele>332</ele>
        <time>2021-10-25T17:43:07+02:00</time>
      </trkpt>
      <trkpt lat="45.89119" lon="4.65503">
        <ele>327</ele>
        <time>2021-10-25T17:43:12+02:00</time>
      </trkpt>
      <trkpt lat="45.89067" lon="4.6558">
        <ele>330</ele>
        <time>2021-10-25T17:43:17+02:00</time>
      </trkpt>
      <trkpt lat="45.88892" lon="4.65747">
        <ele>338</ele>
        <time>2021-10-25T17:43:22+02:00</time>
      </trkpt>
      <trkpt lat="45.88883" lon="4.65759">
        <ele>338</ele>
        <time>2021-10-25T17:43:27+02:00</time>
      </trkpt>
      <trkpt lat="45.88875" lon="4.6577">
        <ele>338</ele>
        <time>2021-10-25T17:43:32+02:00</time>
      </trkpt>
      <trkpt lat="45.88866" lon="4.65785">
        <ele>338</ele>
        <time>2021-10-25T17:43:37+02:00</time>
      </trkpt>
      <trkpt lat="45.88858" lon="4.65804">
        <ele>338</ele>
        <time>2021-10-25T17:43:42+02:00</time>
      </trkpt>
      <trkpt lat="45.8885" lon="4.65826">
        <ele>338</ele>
        <time>2021-10-25T17:43:47+02:00</time>
      </trkpt>
      <trkpt lat="45.88841" lon="4.65849">
        <ele>337</ele>
        <time>2021-10-25T17:43:52+02:00</time>
      </trkpt>
      <trkpt lat="45.8883" lon="4.65889">
        <ele>336</ele>
        <time>2021-10-25T17:43:57+02:00</time>
      </trkpt>
      <trkpt lat="45.8882" lon="4.6592">
        <ele>337</ele>
        <time>2021-10-25T17:44:02+02:00</time>
      </trkpt>
      <trkpt lat="45.88862" lon="4.65969">
        <ele>342</ele>
        <time>2021-10-25T17:44:07+02:00</time>
      </trkpt>
      <trkpt lat="45.88903" lon="4.66006">
        <ele>345</ele>
        <time>2021-10-25T17:44:12+02:00</time>
      </trkpt>
      <trkpt lat="45.88869" lon="4.66048">
        <ele>348</ele>
        <time>2021-10-25T17:44:17+02:00</time>
      </trkpt>
      <trkpt lat="45.88826" lon="4.66119">
        <ele>352</ele>
        <time>2021-10-25T17:44:22+02:00</time>
      </trkpt>
      <trkpt lat="45.88822" lon="4.66196">
        <ele>356</ele>
        <time>2021-10-25T17:44:27+02:00</time>
      </trkpt>
      <trkpt lat="45.88816" lon="4.66293">
        <ele>363</ele>
        <time>2021-10-25T17:44:32+02:00</time>
      </trkpt>
      <trkpt lat="45.88796" lon="4.66295">
        <ele>363</ele>
        <time>2021-10-25T17:44:37+02:00</time>
      </trkpt>
      <trkpt lat="45.88777" lon="4.66295">
        <ele>364</ele>
        <time>2021-10-25T17:44:42+02:00</time>
      </trkpt>
      <trkpt lat="45.88754" lon="4.66299">
        <ele>365</ele>
        <time>2021-10-25T17:44:47+02:00</time>
      </trkpt>
      <trkpt lat="45.8878" lon="4.66355">
        <ele>370</ele>
        <time>2021-10-25T17:44:52+02:00</time>
      </trkpt>
      <trkpt lat="45.88786" lon="4.66376">
        <ele>373</ele>
        <time>2021-10-25T17:44:57+02:00</time>
      </trkpt>
      <trkpt lat="45.88793" lon="4.66404">
        <ele>376</ele>
        <time>2021-10-25T17:45:02+02:00</time>
      </trkpt>
      <trkpt lat="45.88808" lon="4.6646">
        <ele>381</ele>
        <time>2021-10-25T17:45:07+02:00</time>
      </trkpt>
      <trkpt lat="45.8881" lon="4.66465">
        <ele>381</ele>
        <time>2021-10-25T17:45:12+02:00</time>
      </trkpt>
      <trkpt lat="45.88812" lon="4.66472">
        <ele>381</ele>
        <time>2021-10-25T17:45:17+02:00</time>
      </trkpt>
      <trkpt lat="45.88822" lon="4.66503">
        <ele>384</ele>
        <time>2021-10-25T17:45:22+02:00</time>
      </trkpt>
      <trkpt lat="45.88826" lon="4.66514">
        <ele>386</ele>
        <time>2021-10-25T17:45:27+02:00</time>
      </trkpt>
      <trkpt lat="45.88829" lon="4.66521">
        <ele>387</ele>
        <time>2021-10-25T17:45:32+02:00</time>
      </trkpt>
      <trkpt lat="45.88835" lon="4.66531">
        <ele>388</ele>
        <time>2021-10-25T17:45:37+02:00</time>
      </trkpt>
      <trkpt lat="45.88846" lon="4.66545">
        <ele>390</ele>
        <time>2021-10-25T17:45:42+02:00</time>
      </trkpt>
      <trkpt lat="45.88865" lon="4.66565">
        <ele>393</ele>
        <time>2021-10-25T17:45:47+02:00</time>
      </trkpt>
      <trkpt lat="45.88876" lon="4.66592">
        <ele>397</ele>
        <time>2021-10-25T17:45:52+02:00</time>
      </trkpt>
      <trkpt lat="45.88886" lon="4.66611">
        <ele>399</ele>
        <time>2021-10-25T17:45:57+02:00</time>
      </trkpt>
      <trkpt lat="45.88905" lon="4.66641">
        <ele>403</ele>
        <time>2021-10-25T17:46:02+02:00</time>
      </trkpt>
      <trkpt lat="45.88915" lon="4.66652">
        <ele>404</ele>
        <time>2021-10-25T17:46:07+02:00</time>
      </trkpt>
      <trkpt lat="45.88923" lon="4.6666">
        <ele>405</ele>
        <time>2021-10-25T17:46:12+02:00</time>
      </trkpt>
      <trkpt lat="45.88926" lon="4.66663">
        <ele>405</ele>
        <time>2021-10-25T17:46:17+02:00</time>
      </trkpt>
      <trkpt lat="45.8894" lon="4.66675">
        <ele>406</ele>
        <time>2021-10-25T17:46:22+02:00</time>
      </trkpt>
      <trkpt lat="45.88968" lon="4.66695">
        <ele>408</ele>
        <time>2021-10-25T17:46:27+02:00</time>
      </trkpt>
      <trkpt lat="45.88989" lon="4.66704">
        <ele>408</ele>
        <time>2021-10-25T17:46:32+02:00</time>
      </trkpt>
      <trkpt lat="45.89004" lon="4.66711">
        <ele>409</ele>
        <time>2021-10-25T17:46:37+02:00</time>
      </trkpt>
      <trkpt lat="45.89024" lon="4.66719">
        <ele>408</ele>
        <time>2021-10-25T17:46:42+02:00</time>
      </trkpt>
      <trkpt lat="45.89052" lon="4.66738">
        <ele>409</ele>
        <time>2021-10-25T17:46:47+02:00</time>
      </trkpt>
      <trkpt lat="45.89066" lon="4.66758">
        <ele>411</ele>
        <time>2021-10-25T17:46:52+02:00</time>
      </trkpt>
      <trkpt lat="45.89077" lon="4.6677">
        <ele>411</ele>
        <time>2021-10-25T17:46:57+02:00</time>
      </trkpt>
      <trkpt lat="45.89101" lon="4.66787">
        <ele>411</ele>
        <time>2021-10-25T17:47:02+02:00</time>
      </trkpt>
      <trkpt lat="45.89074" lon="4.66849">
        <ele>415</ele>
        <time>2021-10-25T17:47:07+02:00</time>
      </trkpt>
      <trkpt lat="45.89037" lon="4.66835">
        <ele>417</ele>
        <time>2021-10-25T17:47:12+02:00</time>
      </trkpt>
      <trkpt lat="45.8904" lon="4.66802">
        <ele>415</ele>
        <time>2021-10-25T17:47:17+02:00</time>
      </trkpt>
      <trkpt lat="45.89008" lon="4.66798">
        <ele>416</ele>
        <time>2021-10-25T17:47:22+02:00</time>
      </trkpt>
      <trkpt lat="45.8899" lon="4.66819">
        <ele>418</ele>
        <time>2021-10-25T17:47:27+02:00</time>
      </trkpt>
      <trkpt lat="45.88985" lon="4.66836">
        <ele>418</ele>
        <time>2021-10-25T17:47:32+02:00</time>
      </trkpt>
      <trkpt lat="45.88973" lon="4.66854">
        <ele>417</ele>
        <time>2021-10-25T17:47:37+02:00</time>
      </trkpt>
      <trkpt lat="45.88973" lon="4.6687">
        <ele>416</ele>
        <time>2021-10-25T17:47:42+02:00</time>
      </trkpt>
      <trkpt lat="45.88951" lon="4.66992">
        <ele>405</ele>
        <time>2021-10-25T17:47:47+02:00</time>
      </trkpt>
      <trkpt lat="45.88947" lon="4.67071">
        <ele>395</ele>
        <time>2021-10-25T17:47:52+02:00</time>
      </trkpt>
      <trkpt lat="45.88853" lon="4.67104">
        <ele>395</ele>
        <time>2021-10-25T17:47:57+02:00</time>
      </trkpt>
      <trkpt lat="45.8885" lon="4.67071">
        <ele>398</ele>
        <time>2021-10-25T17:48:02+02:00</time>
      </trkpt>
      <trkpt lat="45.88826" lon="4.67078">
        <ele>397</ele>
        <time>2021-10-25T17:48:07+02:00</time>
      </trkpt>
      <trkpt lat="45.88769" lon="4.6709">
        <ele>395</ele>
        <time>2021-10-25T17:48:12+02:00</time>
      </trkpt>
      <trkpt lat="45.88763" lon="4.67168">
        <ele>392</ele>
        <time>2021-10-25T17:48:17+02:00</time>
      </trkpt>
      <trkpt lat="45.88767" lon="4.67197">
        <ele>390</ele>
        <time>2021-10-25T17:48:22+02:00</time>
      </trkpt>
      <trkpt lat="45.88773" lon="4.67239">
        <ele>387</ele>
        <time>2021-10-25T17:48:27+02:00</time>
      </trkpt>
      <trkpt lat="45.88791" lon="4.67308">
        <ele>380</ele>
        <time>2021-10-25T17:48:32+02:00</time>
      </trkpt>
      <trkpt lat="45.88742" lon="4.67318">
        <ele>378</ele>
        <time>2021-10-25T17:48:37+02:00</time>
      </trkpt>
      <trkpt lat="45.88701" lon="4.67297">
        <ele>374</ele>
        <time>2021-10-25T17:48:42+02:00</time>
      </trkpt>
      <trkpt lat="45.88636" lon="4.67248">
        <ele>370</ele>
        <time>2021-10-25T17:48:47+02:00</time>
      </trkpt>
      <trkpt lat="45.88642" lon="4.67415">
        <ele>349</ele>
        <time>2021-10-25T17:48:52+02:00</time>
      </trkpt>
      <trkpt lat="45.88635" lon="4.67462">
        <ele>344</ele>
        <time>2021-10-25T17:48:57+02:00</time>
      </trkpt>
      <trkpt lat="45.88634" lon="4.67467">
        <ele>343</ele>
        <time>2021-10-25T17:49:02+02:00</time>
      </trkpt>
      <trkpt lat="45.88629" lon="4.67481">
        <ele>341</ele>
        <time>2021-10-25T17:49:07+02:00</time>
      </trkpt>
      <trkpt lat="45.88621" lon="4.675">
        <ele>338</ele>
        <time>2021-10-25T17:49:12+02:00</time>
      </trkpt>
      <trkpt lat="45.88614" lon="4.67495">
        <ele>338</ele>
        <time>2021-10-25T17:49:17+02:00</time>
      </trkpt>
      <trkpt lat="45.886" lon="4.67485">
        <ele>337</ele>
        <time>2021-10-25T17:49:22+02:00</time>
      </trkpt>
      <trkpt lat="45.88591" lon="4.67478">
        <ele>336</ele>
        <time>2021-10-25T17:49:27+02:00</time>
      </trkpt>
      <trkpt lat="45.88586" lon="4.67476">
        <ele>335</ele>
        <time>2021-10-25T17:49:32+02:00</time>
      </trkpt>
      <trkpt lat="45.88571" lon="4.6747">
        <ele>334</ele>
        <time>2021-10-25T17:49:37+02:00</time>
      </trkpt>
      <trkpt lat="45.88531" lon="4.67451">
        <ele>333</ele>
        <time>2021-10-25T17:49:42+02:00</time>
      </trkpt>
      <trkpt lat="45.88514" lon="4.67443">
        <ele>333</ele>
        <time>2021-10-25T17:49:47+02:00</time>
      </trkpt>
      <trkpt lat="45.88494" lon="4.67432">
        <ele>333</ele>
        <time>2021-10-25T17:49:52+02:00</time>
      </trkpt>
      <trkpt lat="45.88489" lon="4.67431">
        <ele>333</ele>
        <time>2021-10-25T17:49:57+02:00</time>
      </trkpt>
      <trkpt lat="45.88484" lon="4.67432">
        <ele>333</ele>
        <time>2021-10-25T17:50:02+02:00</time>
      </trkpt>
      <trkpt lat="45.88477" lon="4.6745">
        <ele>332</ele>
        <time>2021-10-25T17:50:07+02:00</time>
      </trkpt>
      <trkpt lat="45.88469" lon="4.67449">
        <ele>332</ele>
        <time>2021-10-25T17:50:12+02:00</time>
      </trkpt>
      <trkpt lat="45.8846" lon="4.67447">
        <ele>332</ele>
        <time>2021-10-25T17:50:17+02:00</time>
      </trkpt>
      <trkpt lat="45.88469" lon="4.67449">
        <ele>332</ele>
        <time>2021-10-25T17:50:22+02:00</time>
      </trkpt>
      <trkpt lat="45.88455" lon="4.67446">
        <ele>332</ele>
        <time>2021-10-25T17:50:27+02:00</time>
      </trkpt>
      <trkpt lat="45.88444" lon="4.67446">
        <ele>333</ele>
        <time>2021-10-25T17:50:32+02:00</time>
      </trkpt>
      <trkpt lat="45.88431" lon="4.67443">
        <ele>333</ele>
        <time>2021-10-25T17:50:37+02:00</time>
      </trkpt>
      <trkpt lat="45.88413" lon="4.67437">
        <ele>334</ele>
        <time>2021-10-25T17:50:42+02:00</time>
      </trkpt>
      <trkpt lat="45.88395" lon="4.67431">
        <ele>335</ele>
        <time>2021-10-25T17:50:47+02:00</time>
      </trkpt>
      <trkpt lat="45.88347" lon="4.67408">
        <ele>337</ele>
        <time>2021-10-25T17:50:52+02:00</time>
      </trkpt>
      <trkpt lat="45.88319" lon="4.67394">
        <ele>339</ele>
        <time>2021-10-25T17:50:57+02:00</time>
      </trkpt>
      <trkpt lat="45.88297" lon="4.67384">
        <ele>341</ele>
        <time>2021-10-25T17:51:02+02:00</time>
      </trkpt>
      <trkpt lat="45.88287" lon="4.6738">
        <ele>342</ele>
        <time>2021-10-25T17:51:07+02:00</time>
      </trkpt>
      <trkpt lat="45.88268" lon="4.67377">
        <ele>343</ele>
        <time>2021-10-25T17:51:12+02:00</time>
      </trkpt>
      <trkpt lat="45.88239" lon="4.67372">
        <ele>344</ele>
        <time>2021-10-25T17:51:17+02:00</time>
      </trkpt>
      <trkpt lat="45.88212" lon="4.67368">
        <ele>343</ele>
        <time>2021-10-25T17:51:22+02:00</time>
      </trkpt>
      <trkpt lat="45.88182" lon="4.6737">
        <ele>343</ele>
        <time>2021-10-25T17:51:27+02:00</time>
      </trkpt>
      <trkpt lat="45.88173" lon="4.67373">
        <ele>343</ele>
        <time>2021-10-25T17:51:32+02:00</time>
      </trkpt>
      <trkpt lat="45.88169" lon="4.67369">
        <ele>343</ele>
        <time>2021-10-25T17:51:37+02:00</time>
      </trkpt>
      <trkpt lat="45.88149" lon="4.67358">
        <ele>345</ele>
        <time>2021-10-25T17:51:42+02:00</time>
      </trkpt>
      <trkpt lat="45.88059" lon="4.67298">
        <ele>354</ele>
        <time>2021-10-25T17:51:47+02:00</time>
      </trkpt>
      <trkpt lat="45.88033" lon="4.67367">
        <ele>352</ele>
        <time>2021-10-25T17:51:52+02:00</time>
      </trkpt>
      <trkpt lat="45.87979" lon="4.67475">
        <ele>360</ele>
        <time>2021-10-25T17:51:57+02:00</time>
      </trkpt>
      <trkpt lat="45.87945" lon="4.67542">
        <ele>367</ele>
        <time>2021-10-25T17:52:02+02:00</time>
      </trkpt>
      <trkpt lat="45.8794" lon="4.67556">
        <ele>368</ele>
        <time>2021-10-25T17:52:07+02:00</time>
      </trkpt>
      <trkpt lat="45.87935" lon="4.67567">
        <ele>369</ele>
        <time>2021-10-25T17:52:12+02:00</time>
      </trkpt>
      <trkpt lat="45.8793" lon="4.67583">
        <ele>370</ele>
        <time>2021-10-25T17:52:17+02:00</time>
      </trkpt>
      <trkpt lat="45.87925" lon="4.67608">
        <ele>370</ele>
        <time>2021-10-25T17:52:22+02:00</time>
      </trkpt>
      <trkpt lat="45.87925" lon="4.67615">
        <ele>370</ele>
        <time>2021-10-25T17:52:27+02:00</time>
      </trkpt>
      <trkpt lat="45.87924" lon="4.67624">
        <ele>370</ele>
        <time>2021-10-25T17:52:32+02:00</time>
      </trkpt>
      <trkpt lat="45.87914" lon="4.67642">
        <ele>371</ele>
        <time>2021-10-25T17:52:37+02:00</time>
      </trkpt>
      <trkpt lat="45.87896" lon="4.67649">
        <ele>372</ele>
        <time>2021-10-25T17:52:42+02:00</time>
      </trkpt>
      <trkpt lat="45.87891" lon="4.67659">
        <ele>372</ele>
        <time>2021-10-25T17:52:47+02:00</time>
      </trkpt>
      <trkpt lat="45.87894" lon="4.67684">
        <ele>371</ele>
        <time>2021-10-25T17:52:52+02:00</time>
      </trkpt>
      <trkpt lat="45.87893" lon="4.67707">
        <ele>371</ele>
        <time>2021-10-25T17:52:57+02:00</time>
      </trkpt>
      <trkpt lat="45.87874" lon="4.67751">
        <ele>369</ele>
        <time>2021-10-25T17:53:02+02:00</time>
      </trkpt>
      <trkpt lat="45.87862" lon="4.67761">
        <ele>368</ele>
        <time>2021-10-25T17:53:07+02:00</time>
      </trkpt>
      <trkpt lat="45.87823" lon="4.67757">
        <ele>367</ele>
        <time>2021-10-25T17:53:12+02:00</time>
      </trkpt>
      <trkpt lat="45.87858" lon="4.67782">
        <ele>366</ele>
        <time>2021-10-25T17:53:17+02:00</time>
      </trkpt>
      <trkpt lat="45.87852" lon="4.67796">
        <ele>365</ele>
        <time>2021-10-25T17:53:22+02:00</time>
      </trkpt>
      <trkpt lat="45.87832" lon="4.67817">
        <ele>362</ele>
        <time>2021-10-25T17:53:27+02:00</time>
      </trkpt>
      <trkpt lat="45.87766" lon="4.6783">
        <ele>359</ele>
        <time>2021-10-25T17:53:32+02:00</time>
      </trkpt>
      <trkpt lat="45.87745" lon="4.67836">
        <ele>358</ele>
        <time>2021-10-25T17:53:37+02:00</time>
      </trkpt>
      <trkpt lat="45.87691" lon="4.67859">
        <ele>352</ele>
        <time>2021-10-25T17:53:42+02:00</time>
      </trkpt>
      <trkpt lat="45.87674" lon="4.67867">
        <ele>350</ele>
        <time>2021-10-25T17:53:47+02:00</time>
      </trkpt>
      <trkpt lat="45.87666" lon="4.67883">
        <ele>348</ele>
        <time>2021-10-25T17:53:52+02:00</time>
      </trkpt>
      <trkpt lat="45.87655" lon="4.67912">
        <ele>345</ele>
        <time>2021-10-25T17:53:57+02:00</time>
      </trkpt>
      <trkpt lat="45.87617" lon="4.68008">
        <ele>342</ele>
        <time>2021-10-25T17:54:02+02:00</time>
      </trkpt>
      <trkpt lat="45.87609" lon="4.6804">
        <ele>342</ele>
        <time>2021-10-25T17:54:07+02:00</time>
      </trkpt>
      <trkpt lat="45.87604" lon="4.68062">
        <ele>342</ele>
        <time>2021-10-25T17:54:12+02:00</time>
      </trkpt>
      <trkpt lat="45.87598" lon="4.68083">
        <ele>342</ele>
        <time>2021-10-25T17:54:17+02:00</time>
      </trkpt>
      <trkpt lat="45.87588" lon="4.68134">
        <ele>341</ele>
        <time>2021-10-25T17:54:22+02:00</time>
      </trkpt>
      <trkpt lat="45.87585" lon="4.6815">
        <ele>341</ele>
        <time>2021-10-25T17:54:27+02:00</time>
      </trkpt>
      <trkpt lat="45.87559" lon="4.68233">
        <ele>341</ele>
        <time>2021-10-25T17:54:32+02:00</time>
      </trkpt>
      <trkpt lat="45.87523" lon="4.68305">
        <ele>340</ele>
        <time>2021-10-25T17:54:37+02:00</time>
      </trkpt>
      <trkpt lat="45.87482" lon="4.68379">
        <ele>344</ele>
        <time>2021-10-25T17:54:42+02:00</time>
      </trkpt>
      <trkpt lat="45.87427" lon="4.68427">
        <ele>342</ele>
        <time>2021-10-25T17:54:47+02:00</time>
      </trkpt>
      <trkpt lat="45.87408" lon="4.68451">
        <ele>342</ele>
        <time>2021-10-25T17:54:52+02:00</time>
      </trkpt>
      <trkpt lat="45.87387" lon="4.68469">
        <ele>340</ele>
        <time>2021-10-25T17:54:57+02:00</time>
      </trkpt>
      <trkpt lat="45.87376" lon="4.68491">
        <ele>340</ele>
        <time>2021-10-25T17:55:02+02:00</time>
      </trkpt>
      <trkpt lat="45.87371" lon="4.68493">
        <ele>340</ele>
        <time>2021-10-25T17:55:07+02:00</time>
      </trkpt>
      <trkpt lat="45.87359" lon="4.68503">
        <ele>339</ele>
        <time>2021-10-25T17:55:12+02:00</time>
      </trkpt>
      <trkpt lat="45.87334" lon="4.68521">
        <ele>335</ele>
        <time>2021-10-25T17:55:17+02:00</time>
      </trkpt>
      <trkpt lat="45.87299" lon="4.68559">
        <ele>330</ele>
        <time>2021-10-25T17:55:22+02:00</time>
      </trkpt>
      <trkpt lat="45.87265" lon="4.68587">
        <ele>328</ele>
        <time>2021-10-25T17:55:27+02:00</time>
      </trkpt>
      <trkpt lat="45.87209" lon="4.6862">
        <ele>319</ele>
        <time>2021-10-25T17:55:32+02:00</time>
      </trkpt>
      <trkpt lat="45.87181" lon="4.68622">
        <ele>316</ele>
        <time>2021-10-25T17:55:37+02:00</time>
      </trkpt>
      <trkpt lat="45.87172" lon="4.68633">
        <ele>316</ele>
        <time>2021-10-25T17:55:42+02:00</time>
      </trkpt>
      <trkpt lat="45.8716" lon="4.6862">
        <ele>314</ele>
        <time>2021-10-25T17:55:47+02:00</time>
      </trkpt>
      <trkpt lat="45.87139" lon="4.68627">
        <ele>312</ele>
        <time>2021-10-25T17:55:52+02:00</time>
      </trkpt>
      <trkpt lat="45.87109" lon="4.68636">
        <ele>310</ele>
        <time>2021-10-25T17:55:57+02:00</time>
      </trkpt>
      <trkpt lat="45.87091" lon="4.6864">
        <ele>309</ele>
        <time>2021-10-25T17:56:02+02:00</time>
      </trkpt>
      <trkpt lat="45.8699" lon="4.68706">
        <ele>298</ele>
        <time>2021-10-25T17:56:07+02:00</time>
      </trkpt>
      <trkpt lat="45.86941" lon="4.68745">
        <ele>290</ele>
        <time>2021-10-25T17:56:12+02:00</time>
      </trkpt>
      <trkpt lat="45.86902" lon="4.68795">
        <ele>284</ele>
        <time>2021-10-25T17:56:17+02:00</time>
      </trkpt>
      <trkpt lat="45.86893" lon="4.68806">
        <ele>282</ele>
        <time>2021-10-25T17:56:22+02:00</time>
      </trkpt>
      <trkpt lat="45.86882" lon="4.68818">
        <ele>280</ele>
        <time>2021-10-25T17:56:27+02:00</time>
      </trkpt>
      <trkpt lat="45.86849" lon="4.68855">
        <ele>272</ele>
        <time>2021-10-25T17:56:32+02:00</time>
      </trkpt>
      <trkpt lat="45.86836" lon="4.68867">
        <ele>269</ele>
        <time>2021-10-25T17:56:37+02:00</time>
      </trkpt>
      <trkpt lat="45.86812" lon="4.68902">
        <ele>261</ele>
        <time>2021-10-25T17:56:42+02:00</time>
      </trkpt>
      <trkpt lat="45.86786" lon="4.68933">
        <ele>255</ele>
        <time>2021-10-25T17:56:47+02:00</time>
      </trkpt>
      <trkpt lat="45.86772" lon="4.68944">
        <ele>251</ele>
        <time>2021-10-25T17:56:52+02:00</time>
      </trkpt>
      <trkpt lat="45.86757" lon="4.68954">
        <ele>248</ele>
        <time>2021-10-25T17:56:57+02:00</time>
      </trkpt>
      <trkpt lat="45.86753" lon="4.68958">
        <ele>248</ele>
        <time>2021-10-25T17:57:02+02:00</time>
      </trkpt>
      <trkpt lat="45.86743" lon="4.68987">
        <ele>246</ele>
        <time>2021-10-25T17:57:07+02:00</time>
      </trkpt>
      <trkpt lat="45.86729" lon="4.69005">
        <ele>243</ele>
        <time>2021-10-25T17:57:12+02:00</time>
      </trkpt>
      <trkpt lat="45.86716" lon="4.69035">
        <ele>239</ele>
        <time>2021-10-25T17:57:17+02:00</time>
      </trkpt>
      <trkpt lat="45.8667" lon="4.6906">
        <ele>231</ele>
        <time>2021-10-25T17:57:22+02:00</time>
      </trkpt>
      <trkpt lat="45.86659" lon="4.69024">
        <ele>231</ele>
        <time>2021-10-25T17:57:27+02:00</time>
      </trkpt>
      <trkpt lat="45.86647" lon="4.68968">
        <ele>230</ele>
        <time>2021-10-25T17:57:32+02:00</time>
      </trkpt>
      <trkpt lat="45.86601" lon="4.68999">
        <ele>227</ele>
        <time>2021-10-25T17:57:37+02:00</time>
      </trkpt>
      <trkpt lat="45.86545" lon="4.69039">
        <ele>223</ele>
        <time>2021-10-25T17:57:42+02:00</time>
      </trkpt>
      <trkpt lat="45.86526" lon="4.69046">
        <ele>222</ele>
        <time>2021-10-25T17:57:47+02:00</time>
      </trkpt>
      <trkpt lat="45.86487" lon="4.69072">
        <ele>221</ele>
        <time>2021-10-25T17:57:52+02:00</time>
      </trkpt>
      <trkpt lat="45.8648" lon="4.69074">
        <ele>221</ele>
        <time>2021-10-25T17:57:57+02:00</time>
      </trkpt>
      <trkpt lat="45.86469" lon="4.69073">
        <ele>221</ele>
        <time>2021-10-25T17:58:02+02:00</time>
      </trkpt>
      <trkpt lat="45.86453" lon="4.69079">
        <ele>220</ele>
        <time>2021-10-25T17:58:07+02:00</time>
      </trkpt>
      <trkpt lat="45.86419" lon="4.69101">
        <ele>220</ele>
        <time>2021-10-25T17:58:12+02:00</time>
      </trkpt>
      <trkpt lat="45.86416" lon="4.69103">
        <ele>220</ele>
        <time>2021-10-25T17:58:17+02:00</time>
      </trkpt>
      <trkpt lat="45.8638" lon="4.69127">
        <ele>218</ele>
        <time>2021-10-25T17:58:22+02:00</time>
      </trkpt>
      <trkpt lat="45.86364" lon="4.69139">
        <ele>217</ele>
        <time>2021-10-25T17:58:27+02:00</time>
      </trkpt>
      <trkpt lat="45.86362" lon="4.69127">
        <ele>217</ele>
        <time>2021-10-25T17:58:32+02:00</time>
      </trkpt>
      <trkpt lat="45.86353" lon="4.69096">
        <ele>216</ele>
        <time>2021-10-25T17:58:37+02:00</time>
      </trkpt>
      <trkpt lat="45.86347" lon="4.69085">
        <ele>216</ele>
        <time>2021-10-25T17:58:42+02:00</time>
      </trkpt>
      <trkpt lat="45.86335" lon="4.69076">
        <ele>215</ele>
        <time>2021-10-25T17:58:47+02:00</time>
      </trkpt>
      <trkpt lat="45.86327" lon="4.69075">
        <ele>215</ele>
        <time>2021-10-25T17:58:52+02:00</time>
      </trkpt>
      <trkpt lat="45.86314" lon="4.6908">
        <ele>214</ele>
        <time>2021-10-25T17:58:57+02:00</time>
      </trkpt>
      <trkpt lat="45.86296" lon="4.69088">
        <ele>213</ele>
        <time>2021-10-25T17:59:02+02:00</time>
      </trkpt>
      <trkpt lat="45.8629" lon="4.69093">
        <ele>213</ele>
        <time>2021-10-25T17:59:07+02:00</time>
      </trkpt>
      <trkpt lat="45.86282" lon="4.69087">
        <ele>213</ele>
        <time>2021-10-25T17:59:12+02:00</time>
      </trkpt>
      <trkpt lat="45.86273" lon="4.69082">
        <ele>212</ele>
        <time>2021-10-25T17:59:17+02:00</time>
      </trkpt>
      <trkpt lat="45.86254" lon="4.69076">
        <ele>212</ele>
        <time>2021-10-25T17:59:22+02:00</time>
      </trkpt>
      <trkpt lat="45.86237" lon="4.69071">
        <ele>211</ele>
        <time>2021-10-25T17:59:27+02:00</time>
      </trkpt>
      <trkpt lat="45.86223" lon="4.6907">
        <ele>210</ele>
        <time>2021-10-25T17:59:32+02:00</time>
      </trkpt>
      <trkpt lat="45.86212" lon="4.69069">
        <ele>209</ele>
        <time>2021-10-25T17:59:37+02:00</time>
      </trkpt>
      <trkpt lat="45.86199" lon="4.69069">
        <ele>208</ele>
        <time>2021-10-25T17:59:42+02:00</time>
      </trkpt>
      <trkpt lat="45.86193" lon="4.6907">
        <ele>208</ele>
        <time>2021-10-25T17:59:47+02:00</time>
      </trkpt>
      <trkpt lat="45.86143" lon="4.69074">
        <ele>203</ele>
        <time>2021-10-25T17:59:52+02:00</time>
      </trkpt>
      <trkpt lat="45.86114" lon="4.69078">
        <ele>201</ele>
        <time>2021-10-25T17:59:57+02:00</time>
      </trkpt>
      <trkpt lat="45.86006" lon="4.69089">
        <ele>196</ele>
        <time>2021-10-25T18:00:02+02:00</time>
      </trkpt>
      <trkpt lat="45.85998" lon="4.69089">
        <ele>196</ele>
        <time>2021-10-25T18:00:07+02:00</time>
      </trkpt>
      <trkpt lat="45.85991" lon="4.6909">
        <ele>196</ele>
        <time>2021-10-25T18:00:12+02:00</time>
      </trkpt>
      <trkpt lat="45.85965" lon="4.69091">
        <ele>197</ele>
        <time>2021-10-25T18:00:17+02:00</time>
      </trkpt>
      <trkpt lat="45.85957" lon="4.6909">
        <ele>197</ele>
        <time>2021-10-25T18:00:22+02:00</time>
      </trkpt>
      <trkpt lat="45.85949" lon="4.69089">
        <ele>197</ele>
        <time>2021-10-25T18:00:27+02:00</time>
      </trkpt>
      <trkpt lat="45.85915" lon="4.6908">
        <ele>198</ele>
        <time>2021-10-25T18:00:32+02:00</time>
      </trkpt>
      <trkpt lat="45.85893" lon="4.69061">
        <ele>198</ele>
        <time>2021-10-25T18:00:37+02:00</time>
      </trkpt>
      <trkpt lat="45.85874" lon="4.69026">
        <ele>197</ele>
        <time>2021-10-25T18:00:42+02:00</time>
      </trkpt>
      <trkpt lat="45.85865" lon="4.68973">
        <ele>197</ele>
        <time>2021-10-25T18:00:47+02:00</time>
      </trkpt>
      <trkpt lat="45.85865" lon="4.68937">
        <ele>197</ele>
        <time>2021-10-25T18:00:52+02:00</time>
      </trkpt>
      <trkpt lat="45.85866" lon="4.68897">
        <ele>197</ele>
        <time>2021-10-25T18:00:57+02:00</time>
      </trkpt>
      <trkpt lat="45.8588" lon="4.68772">
        <ele>198</ele>
        <time>2021-10-25T18:01:02+02:00</time>
      </trkpt>
      <trkpt lat="45.85846" lon="4.68762">
        <ele>199</ele>
        <time>2021-10-25T18:01:07+02:00</time>
      </trkpt>
      <trkpt lat="45.85843" lon="4.68746">
        <ele>199</ele>
        <time>2021-10-25T18:01:12+02:00</time>
      </trkpt>
      <trkpt lat="45.85838" lon="4.68742">
        <ele>199</ele>
        <time>2021-10-25T18:01:17+02:00</time>
      </trkpt>
      <trkpt lat="45.85829" lon="4.68747">
        <ele>199</ele>
        <time>2021-10-25T18:01:22+02:00</time>
      </trkpt>
      <trkpt lat="45.85823" lon="4.68745">
        <ele>199</ele>
        <time>2021-10-25T18:01:27+02:00</time>
      </trkpt>
      <trkpt lat="45.85812" lon="4.68744">
        <ele>199</ele>
        <time>2021-10-25T18:01:32+02:00</time>
      </trkpt>
    </trkseg>
  </trk>
</gpx>